<?xml version="1.0" encoding="UTF-8" standalone="no" ?>
<gpx xmlns="http://www.topografix.com/GPX/1/1" xmlns:xsi="http://www.w3.org/2001/XMLSchema-instance" xsi:schemaLocation="http://www.topografix.com/GPX/1/1 http://www.topografix.com/GPX/1/1/gpx.xsd" version="1.1" creator="VisuGPX - https://www.visugpx.com">
  <metadata>
    <name>Glisy_12 km</name>
    <desc><![CDATA[Walkmeter Randonnée 15 sept. 2013 09:07:05]]></desc>
  </metadata>
  <trk>
    <name><![CDATA[Ch en S - Glisy]]></name>
    <trkseg>
      <trkpt lat="49.88019" lon="2.39723">
        <ele>15</ele>
        <time>2013-09-15T07:07:05Z</time>
      </trkpt>
      <trkpt lat="49.88028" lon="2.39726">
        <ele>15</ele>
        <time>2013-09-15T07:07:08Z</time>
      </trkpt>
      <trkpt lat="49.88041" lon="2.39722">
        <ele>24.3</ele>
        <time>2013-09-15T07:07:33Z</time>
      </trkpt>
      <trkpt lat="49.88056" lon="2.3972">
        <ele>28</ele>
        <time>2013-09-15T07:07:47Z</time>
      </trkpt>
      <trkpt lat="49.8807" lon="2.39729">
        <ele>28</ele>
        <time>2013-09-15T07:07:55Z</time>
      </trkpt>
      <trkpt lat="49.88095" lon="2.3972">
        <ele>28</ele>
        <time>2013-09-15T07:08:09Z</time>
      </trkpt>
      <trkpt lat="49.88109" lon="2.39724">
        <ele>23.7</ele>
        <time>2013-09-15T07:08:31Z</time>
      </trkpt>
      <trkpt lat="49.88123" lon="2.3973">
        <ele>21.3</ele>
        <time>2013-09-15T07:08:40Z</time>
      </trkpt>
      <trkpt lat="49.88138" lon="2.3973">
        <ele>17</ele>
        <time>2013-09-15T07:08:50Z</time>
      </trkpt>
      <trkpt lat="49.88151" lon="2.39733">
        <ele>18.7</ele>
        <time>2013-09-15T07:08:56Z</time>
      </trkpt>
      <trkpt lat="49.88164" lon="2.39726">
        <ele>19.8</ele>
        <time>2013-09-15T07:09:10Z</time>
      </trkpt>
      <trkpt lat="49.88175" lon="2.39732">
        <ele>19.2</ele>
        <time>2013-09-15T07:09:18Z</time>
      </trkpt>
      <trkpt lat="49.88188" lon="2.39724">
        <ele>19.5</ele>
        <time>2013-09-15T07:09:26Z</time>
      </trkpt>
      <trkpt lat="49.88202" lon="2.39731">
        <ele>17.1</ele>
        <time>2013-09-15T07:09:52Z</time>
      </trkpt>
      <trkpt lat="49.88216" lon="2.39727">
        <ele>17.8</ele>
        <time>2013-09-15T07:09:54Z</time>
      </trkpt>
      <trkpt lat="49.88229" lon="2.39726">
        <ele>22.3</ele>
        <time>2013-09-15T07:10:08Z</time>
      </trkpt>
      <trkpt lat="49.88243" lon="2.39718">
        <ele>23.1</ele>
        <time>2013-09-15T07:10:17Z</time>
      </trkpt>
      <trkpt lat="49.8826" lon="2.39718">
        <ele>24</ele>
        <time>2013-09-15T07:10:28Z</time>
      </trkpt>
      <trkpt lat="49.88273" lon="2.39722">
        <ele>24.8</ele>
        <time>2013-09-15T07:10:37Z</time>
      </trkpt>
      <trkpt lat="49.88287" lon="2.39724">
        <ele>25.5</ele>
        <time>2013-09-15T07:10:47Z</time>
      </trkpt>
      <trkpt lat="49.88301" lon="2.39731">
        <ele>23</ele>
        <time>2013-09-15T07:10:58Z</time>
      </trkpt>
      <trkpt lat="49.88315" lon="2.39736">
        <ele>21.5</ele>
        <time>2013-09-15T07:11:13Z</time>
      </trkpt>
      <trkpt lat="49.88329" lon="2.39738">
        <ele>20.1</ele>
        <time>2013-09-15T07:11:24Z</time>
      </trkpt>
      <trkpt lat="49.88343" lon="2.39739">
        <ele>19.1</ele>
        <time>2013-09-15T07:11:35Z</time>
      </trkpt>
      <trkpt lat="49.88357" lon="2.39743">
        <ele>18</ele>
        <time>2013-09-15T07:11:47Z</time>
      </trkpt>
      <trkpt lat="49.8837" lon="2.39749">
        <ele>18.2</ele>
        <time>2013-09-15T07:11:56Z</time>
      </trkpt>
      <trkpt lat="49.88384" lon="2.39755">
        <ele>18.9</ele>
        <time>2013-09-15T07:12:09Z</time>
      </trkpt>
      <trkpt lat="49.88397" lon="2.39759">
        <ele>19.5</ele>
        <time>2013-09-15T07:12:20Z</time>
      </trkpt>
      <trkpt lat="49.88412" lon="2.39755">
        <ele>19.8</ele>
        <time>2013-09-15T07:12:26Z</time>
      </trkpt>
      <trkpt lat="49.88425" lon="2.39746">
        <ele>20.3</ele>
        <time>2013-09-15T07:12:35Z</time>
      </trkpt>
      <trkpt lat="49.88435" lon="2.39743">
        <ele>20.5</ele>
        <time>2013-09-15T07:12:39Z</time>
      </trkpt>
      <trkpt lat="49.88439" lon="2.39763">
        <ele>27.7</ele>
        <time>2013-09-15T07:13:08Z</time>
      </trkpt>
      <trkpt lat="49.88435" lon="2.39784">
        <ele>23.4</ele>
        <time>2013-09-15T07:13:17Z</time>
      </trkpt>
      <trkpt lat="49.88437" lon="2.39806">
        <ele>20.7</ele>
        <time>2013-09-15T07:13:27Z</time>
      </trkpt>
      <trkpt lat="49.88439" lon="2.39825">
        <ele>20</ele>
        <time>2013-09-15T07:13:35Z</time>
      </trkpt>
      <trkpt lat="49.88433" lon="2.39845">
        <ele>19.9</ele>
        <time>2013-09-15T07:13:47Z</time>
      </trkpt>
      <trkpt lat="49.88438" lon="2.39866">
        <ele>18.5</ele>
        <time>2013-09-15T07:13:57Z</time>
      </trkpt>
      <trkpt lat="49.88438" lon="2.39888">
        <ele>17.5</ele>
        <time>2013-09-15T07:14:11Z</time>
      </trkpt>
      <trkpt lat="49.88439" lon="2.39911">
        <ele>18.5</ele>
        <time>2013-09-15T07:14:20Z</time>
      </trkpt>
      <trkpt lat="49.88446" lon="2.39929">
        <ele>21.3</ele>
        <time>2013-09-15T07:14:28Z</time>
      </trkpt>
      <trkpt lat="49.88444" lon="2.39951">
        <ele>22.3</ele>
        <time>2013-09-15T07:14:39Z</time>
      </trkpt>
      <trkpt lat="49.88446" lon="2.39972">
        <ele>23.4</ele>
        <time>2013-09-15T07:14:51Z</time>
      </trkpt>
      <trkpt lat="49.88448" lon="2.39995">
        <ele>23.9</ele>
        <time>2013-09-15T07:14:59Z</time>
      </trkpt>
      <trkpt lat="49.88455" lon="2.40014">
        <ele>23.3</ele>
        <time>2013-09-15T07:15:08Z</time>
      </trkpt>
      <trkpt lat="49.88454" lon="2.40029">
        <ele>22.8</ele>
        <time>2013-09-15T07:15:16Z</time>
      </trkpt>
      <trkpt lat="49.88464" lon="2.40045">
        <ele>22.2</ele>
        <time>2013-09-15T07:15:25Z</time>
      </trkpt>
      <trkpt lat="49.88467" lon="2.40065">
        <ele>21.5</ele>
        <time>2013-09-15T07:15:35Z</time>
      </trkpt>
      <trkpt lat="49.88464" lon="2.40087">
        <ele>20.3</ele>
        <time>2013-09-15T07:15:45Z</time>
      </trkpt>
      <trkpt lat="49.88463" lon="2.40109">
        <ele>18.4</ele>
        <time>2013-09-15T07:15:53Z</time>
      </trkpt>
      <trkpt lat="49.88462" lon="2.40134">
        <ele>17</ele>
        <time>2013-09-15T07:16:05Z</time>
      </trkpt>
      <trkpt lat="49.88467" lon="2.40155">
        <ele>18.2</ele>
        <time>2013-09-15T07:16:18Z</time>
      </trkpt>
      <trkpt lat="49.88467" lon="2.40176">
        <ele>18.5</ele>
        <time>2013-09-15T07:16:28Z</time>
      </trkpt>
      <trkpt lat="49.88463" lon="2.40196">
        <ele>18.8</ele>
        <time>2013-09-15T07:16:39Z</time>
      </trkpt>
      <trkpt lat="49.88467" lon="2.40218">
        <ele>19.1</ele>
        <time>2013-09-15T07:16:47Z</time>
      </trkpt>
      <trkpt lat="49.88471" lon="2.4024">
        <ele>19.4</ele>
        <time>2013-09-15T07:16:58Z</time>
      </trkpt>
      <trkpt lat="49.88473" lon="2.40262">
        <ele>19.6</ele>
        <time>2013-09-15T07:17:05Z</time>
      </trkpt>
      <trkpt lat="49.88474" lon="2.40285">
        <ele>19.8</ele>
        <time>2013-09-15T07:17:13Z</time>
      </trkpt>
      <trkpt lat="49.88482" lon="2.40305">
        <ele>20.1</ele>
        <time>2013-09-15T07:17:21Z</time>
      </trkpt>
      <trkpt lat="49.88486" lon="2.40326">
        <ele>20.3</ele>
        <time>2013-09-15T07:17:28Z</time>
      </trkpt>
      <trkpt lat="49.88485" lon="2.40348">
        <ele>20.6</ele>
        <time>2013-09-15T07:17:40Z</time>
      </trkpt>
      <trkpt lat="49.8848" lon="2.40372">
        <ele>20.9</ele>
        <time>2013-09-15T07:17:48Z</time>
      </trkpt>
      <trkpt lat="49.88481" lon="2.40395">
        <ele>21.3</ele>
        <time>2013-09-15T07:17:56Z</time>
      </trkpt>
      <trkpt lat="49.8848" lon="2.40416">
        <ele>22.3</ele>
        <time>2013-09-15T07:18:07Z</time>
      </trkpt>
      <trkpt lat="49.88486" lon="2.40435">
        <ele>23</ele>
        <time>2013-09-15T07:18:15Z</time>
      </trkpt>
      <trkpt lat="49.88493" lon="2.40454">
        <ele>23.9</ele>
        <time>2013-09-15T07:18:25Z</time>
      </trkpt>
      <trkpt lat="49.8849" lon="2.40476">
        <ele>23.6</ele>
        <time>2013-09-15T07:18:34Z</time>
      </trkpt>
      <trkpt lat="49.88489" lon="2.40498">
        <ele>23.1</ele>
        <time>2013-09-15T07:18:43Z</time>
      </trkpt>
      <trkpt lat="49.8849" lon="2.4052">
        <ele>22.7</ele>
        <time>2013-09-15T07:18:50Z</time>
      </trkpt>
      <trkpt lat="49.88487" lon="2.40541">
        <ele>22.2</ele>
        <time>2013-09-15T07:18:58Z</time>
      </trkpt>
      <trkpt lat="49.88486" lon="2.40561">
        <ele>21.8</ele>
        <time>2013-09-15T07:19:06Z</time>
      </trkpt>
      <trkpt lat="49.88495" lon="2.40578">
        <ele>21.3</ele>
        <time>2013-09-15T07:19:14Z</time>
      </trkpt>
      <trkpt lat="49.88497" lon="2.406">
        <ele>20.7</ele>
        <time>2013-09-15T07:19:25Z</time>
      </trkpt>
      <trkpt lat="49.88497" lon="2.4062">
        <ele>20.3</ele>
        <time>2013-09-15T07:19:33Z</time>
      </trkpt>
      <trkpt lat="49.88501" lon="2.40641">
        <ele>19.8</ele>
        <time>2013-09-15T07:19:41Z</time>
      </trkpt>
      <trkpt lat="49.88506" lon="2.40662">
        <ele>19.1</ele>
        <time>2013-09-15T07:19:51Z</time>
      </trkpt>
      <trkpt lat="49.88515" lon="2.40679">
        <ele>18.4</ele>
        <time>2013-09-15T07:20:00Z</time>
      </trkpt>
      <trkpt lat="49.88506" lon="2.40698">
        <ele>17.9</ele>
        <time>2013-09-15T07:20:08Z</time>
      </trkpt>
      <trkpt lat="49.88504" lon="2.4072">
        <ele>17.2</ele>
        <time>2013-09-15T07:20:17Z</time>
      </trkpt>
      <trkpt lat="49.8851" lon="2.40739">
        <ele>16.5</ele>
        <time>2013-09-15T07:20:27Z</time>
      </trkpt>
      <trkpt lat="49.88516" lon="2.40754">
        <ele>19</ele>
        <time>2013-09-15T07:20:39Z</time>
      </trkpt>
      <trkpt lat="49.88514" lon="2.40774">
        <ele>16.3</ele>
        <time>2013-09-15T07:20:48Z</time>
      </trkpt>
      <trkpt lat="49.88517" lon="2.40795">
        <ele>17.3</ele>
        <time>2013-09-15T07:20:57Z</time>
      </trkpt>
      <trkpt lat="49.88518" lon="2.40817">
        <ele>18.4</ele>
        <time>2013-09-15T07:21:07Z</time>
      </trkpt>
      <trkpt lat="49.88521" lon="2.40839">
        <ele>19.1</ele>
        <time>2013-09-15T07:21:15Z</time>
      </trkpt>
      <trkpt lat="49.88525" lon="2.40861">
        <ele>19.3</ele>
        <time>2013-09-15T07:21:26Z</time>
      </trkpt>
      <trkpt lat="49.88526" lon="2.40883">
        <ele>19.6</ele>
        <time>2013-09-15T07:21:35Z</time>
      </trkpt>
      <trkpt lat="49.88525" lon="2.4091">
        <ele>19.9</ele>
        <time>2013-09-15T07:21:48Z</time>
      </trkpt>
      <trkpt lat="49.8852" lon="2.40932">
        <ele>20.3</ele>
        <time>2013-09-15T07:22:01Z</time>
      </trkpt>
      <trkpt lat="49.88526" lon="2.40952">
        <ele>20.5</ele>
        <time>2013-09-15T07:22:09Z</time>
      </trkpt>
      <trkpt lat="49.88526" lon="2.40974">
        <ele>20.8</ele>
        <time>2013-09-15T07:22:21Z</time>
      </trkpt>
      <trkpt lat="49.88526" lon="2.40995">
        <ele>21</ele>
        <time>2013-09-15T07:22:29Z</time>
      </trkpt>
      <trkpt lat="49.88527" lon="2.41017">
        <ele>21.3</ele>
        <time>2013-09-15T07:22:40Z</time>
      </trkpt>
      <trkpt lat="49.88534" lon="2.41036">
        <ele>21.5</ele>
        <time>2013-09-15T07:22:48Z</time>
      </trkpt>
      <trkpt lat="49.8854" lon="2.41058">
        <ele>21.8</ele>
        <time>2013-09-15T07:22:59Z</time>
      </trkpt>
      <trkpt lat="49.88546" lon="2.41077">
        <ele>22</ele>
        <time>2013-09-15T07:23:07Z</time>
      </trkpt>
      <trkpt lat="49.8855" lon="2.41099">
        <ele>23.3</ele>
        <time>2013-09-15T07:23:17Z</time>
      </trkpt>
      <trkpt lat="49.88545" lon="2.41119">
        <ele>25</ele>
        <time>2013-09-15T07:23:30Z</time>
      </trkpt>
      <trkpt lat="49.88542" lon="2.41141">
        <ele>26.3</ele>
        <time>2013-09-15T07:23:39Z</time>
      </trkpt>
      <trkpt lat="49.88537" lon="2.41161">
        <ele>27.4</ele>
        <time>2013-09-15T07:23:47Z</time>
      </trkpt>
      <trkpt lat="49.88537" lon="2.41183">
        <ele>27.4</ele>
        <time>2013-09-15T07:23:57Z</time>
      </trkpt>
      <trkpt lat="49.88535" lon="2.41206">
        <ele>26.5</ele>
        <time>2013-09-15T07:24:06Z</time>
      </trkpt>
      <trkpt lat="49.88535" lon="2.41229">
        <ele>25.4</ele>
        <time>2013-09-15T07:24:17Z</time>
      </trkpt>
      <trkpt lat="49.88537" lon="2.41251">
        <ele>24.3</ele>
        <time>2013-09-15T07:24:28Z</time>
      </trkpt>
      <trkpt lat="49.88533" lon="2.41272">
        <ele>23.1</ele>
        <time>2013-09-15T07:24:40Z</time>
      </trkpt>
      <trkpt lat="49.88535" lon="2.41295">
        <ele>22.1</ele>
        <time>2013-09-15T07:24:49Z</time>
      </trkpt>
      <trkpt lat="49.88537" lon="2.41318">
        <ele>21</ele>
        <time>2013-09-15T07:24:58Z</time>
      </trkpt>
      <trkpt lat="49.88533" lon="2.4134">
        <ele>20.1</ele>
        <time>2013-09-15T07:25:06Z</time>
      </trkpt>
      <trkpt lat="49.88526" lon="2.41358">
        <ele>19</ele>
        <time>2013-09-15T07:25:15Z</time>
      </trkpt>
      <trkpt lat="49.88522" lon="2.41378">
        <ele>18.2</ele>
        <time>2013-09-15T07:25:22Z</time>
      </trkpt>
      <trkpt lat="49.88516" lon="2.41398">
        <ele>19.5</ele>
        <time>2013-09-15T07:25:33Z</time>
      </trkpt>
      <trkpt lat="49.88508" lon="2.41417">
        <ele>21.5</ele>
        <time>2013-09-15T07:25:44Z</time>
      </trkpt>
      <trkpt lat="49.88506" lon="2.41437">
        <ele>22.6</ele>
        <time>2013-09-15T07:25:55Z</time>
      </trkpt>
      <trkpt lat="49.88501" lon="2.41459">
        <ele>21.7</ele>
        <time>2013-09-15T07:26:03Z</time>
      </trkpt>
      <trkpt lat="49.88504" lon="2.4148">
        <ele>20.5</ele>
        <time>2013-09-15T07:26:13Z</time>
      </trkpt>
      <trkpt lat="49.88504" lon="2.41503">
        <ele>19.2</ele>
        <time>2013-09-15T07:26:23Z</time>
      </trkpt>
      <trkpt lat="49.88506" lon="2.41526">
        <ele>19.5</ele>
        <time>2013-09-15T07:26:33Z</time>
      </trkpt>
      <trkpt lat="49.88507" lon="2.41547">
        <ele>20.3</ele>
        <time>2013-09-15T07:26:47Z</time>
      </trkpt>
      <trkpt lat="49.88505" lon="2.41568">
        <ele>20.8</ele>
        <time>2013-09-15T07:26:56Z</time>
      </trkpt>
      <trkpt lat="49.88511" lon="2.41589">
        <ele>21.3</ele>
        <time>2013-09-15T07:27:05Z</time>
      </trkpt>
      <trkpt lat="49.88518" lon="2.41608">
        <ele>21.9</ele>
        <time>2013-09-15T07:27:15Z</time>
      </trkpt>
      <trkpt lat="49.88523" lon="2.41629">
        <ele>21.7</ele>
        <time>2013-09-15T07:27:24Z</time>
      </trkpt>
      <trkpt lat="49.88528" lon="2.41649">
        <ele>21.5</ele>
        <time>2013-09-15T07:27:31Z</time>
      </trkpt>
      <trkpt lat="49.88531" lon="2.41671">
        <ele>21</ele>
        <time>2013-09-15T07:27:42Z</time>
      </trkpt>
      <trkpt lat="49.88525" lon="2.41691">
        <ele>20.6</ele>
        <time>2013-09-15T07:27:53Z</time>
      </trkpt>
      <trkpt lat="49.88521" lon="2.41712">
        <ele>20.3</ele>
        <time>2013-09-15T07:28:02Z</time>
      </trkpt>
      <trkpt lat="49.88524" lon="2.41735">
        <ele>19.9</ele>
        <time>2013-09-15T07:28:12Z</time>
      </trkpt>
      <trkpt lat="49.88523" lon="2.41757">
        <ele>19.5</ele>
        <time>2013-09-15T07:28:21Z</time>
      </trkpt>
      <trkpt lat="49.88519" lon="2.41779">
        <ele>19.2</ele>
        <time>2013-09-15T07:28:30Z</time>
      </trkpt>
      <trkpt lat="49.88514" lon="2.41799">
        <ele>17.8</ele>
        <time>2013-09-15T07:28:42Z</time>
      </trkpt>
      <trkpt lat="49.88509" lon="2.41819">
        <ele>16</ele>
        <time>2013-09-15T07:28:52Z</time>
      </trkpt>
      <trkpt lat="49.88502" lon="2.41839">
        <ele>14.9</ele>
        <time>2013-09-15T07:29:02Z</time>
      </trkpt>
      <trkpt lat="49.885" lon="2.41861">
        <ele>13.9</ele>
        <time>2013-09-15T07:29:12Z</time>
      </trkpt>
      <trkpt lat="49.88493" lon="2.41879">
        <ele>12.7</ele>
        <time>2013-09-15T07:29:23Z</time>
      </trkpt>
      <trkpt lat="49.88486" lon="2.41898">
        <ele>12.5</ele>
        <time>2013-09-15T07:29:36Z</time>
      </trkpt>
      <trkpt lat="49.8848" lon="2.41917">
        <ele>14</ele>
        <time>2013-09-15T07:29:44Z</time>
      </trkpt>
      <trkpt lat="49.88475" lon="2.41939">
        <ele>18</ele>
        <time>2013-09-15T07:29:52Z</time>
      </trkpt>
      <trkpt lat="49.8847" lon="2.41959">
        <ele>19.3</ele>
        <time>2013-09-15T07:29:59Z</time>
      </trkpt>
      <trkpt lat="49.88468" lon="2.4198">
        <ele>20.8</ele>
        <time>2013-09-15T07:30:07Z</time>
      </trkpt>
      <trkpt lat="49.88464" lon="2.42002">
        <ele>21.7</ele>
        <time>2013-09-15T07:30:16Z</time>
      </trkpt>
      <trkpt lat="49.8846" lon="2.42024">
        <ele>22.6</ele>
        <time>2013-09-15T07:30:26Z</time>
      </trkpt>
      <trkpt lat="49.88457" lon="2.42044">
        <ele>22.6</ele>
        <time>2013-09-15T07:30:35Z</time>
      </trkpt>
      <trkpt lat="49.88453" lon="2.42067">
        <ele>21.5</ele>
        <time>2013-09-15T07:30:46Z</time>
      </trkpt>
      <trkpt lat="49.88452" lon="2.42088">
        <ele>20.7</ele>
        <time>2013-09-15T07:30:56Z</time>
      </trkpt>
      <trkpt lat="49.88451" lon="2.42109">
        <ele>19.9</ele>
        <time>2013-09-15T07:31:05Z</time>
      </trkpt>
      <trkpt lat="49.88448" lon="2.42131">
        <ele>18.8</ele>
        <time>2013-09-15T07:31:17Z</time>
      </trkpt>
      <trkpt lat="49.88447" lon="2.42142">
        <ele>17.9</ele>
        <time>2013-09-15T07:31:27Z</time>
      </trkpt>
      <trkpt lat="49.88441" lon="2.42146">
        <ele>16.6</ele>
        <time>2013-09-15T07:31:36Z</time>
      </trkpt>
      <trkpt lat="49.88441" lon="2.42146">
        <ele>16.6</ele>
        <time>2013-09-15T07:32:20Z</time>
      </trkpt>
      <trkpt lat="49.8843" lon="2.42147">
        <ele>15.9</ele>
        <time>2013-09-15T07:32:21Z</time>
      </trkpt>
      <trkpt lat="49.88426" lon="2.42144">
        <ele>15.2</ele>
        <time>2013-09-15T07:32:27Z</time>
      </trkpt>
      <trkpt lat="49.88437" lon="2.42149">
        <ele>14.9</ele>
        <time>2013-09-15T07:32:31Z</time>
      </trkpt>
      <trkpt lat="49.88452" lon="2.42142">
        <ele>13.4</ele>
        <time>2013-09-15T07:32:51Z</time>
      </trkpt>
      <trkpt lat="49.88452" lon="2.42115">
        <ele>12.6</ele>
        <time>2013-09-15T07:33:02Z</time>
      </trkpt>
      <trkpt lat="49.88446" lon="2.42111">
        <ele>12.5</ele>
        <time>2013-09-15T07:33:04Z</time>
      </trkpt>
      <trkpt lat="49.88433" lon="2.42119">
        <ele>11.9</ele>
        <time>2013-09-15T07:33:11Z</time>
      </trkpt>
      <trkpt lat="49.8843" lon="2.4212">
        <ele>11.8</ele>
        <time>2013-09-15T07:33:13Z</time>
      </trkpt>
      <trkpt lat="49.88446" lon="2.4216">
        <ele>11.3</ele>
        <time>2013-09-15T07:33:21Z</time>
      </trkpt>
      <trkpt lat="49.88446" lon="2.4216">
        <ele>11.3</ele>
        <time>2013-09-15T07:35:39Z</time>
      </trkpt>
      <trkpt lat="49.88448" lon="2.42189">
        <ele>11.3</ele>
        <time>2013-09-15T07:35:47Z</time>
      </trkpt>
      <trkpt lat="49.88452" lon="2.42209">
        <ele>12.1</ele>
        <time>2013-09-15T07:35:58Z</time>
      </trkpt>
      <trkpt lat="49.88458" lon="2.42232">
        <ele>12.9</ele>
        <time>2013-09-15T07:36:09Z</time>
      </trkpt>
      <trkpt lat="49.88459" lon="2.42254">
        <ele>13.4</ele>
        <time>2013-09-15T07:36:16Z</time>
      </trkpt>
      <trkpt lat="49.88452" lon="2.42273">
        <ele>14</ele>
        <time>2013-09-15T07:36:25Z</time>
      </trkpt>
      <trkpt lat="49.88453" lon="2.42296">
        <ele>11.8</ele>
        <time>2013-09-15T07:36:37Z</time>
      </trkpt>
      <trkpt lat="49.8846" lon="2.42316">
        <ele>10.1</ele>
        <time>2013-09-15T07:36:48Z</time>
      </trkpt>
      <trkpt lat="49.88467" lon="2.42327">
        <ele>10.7</ele>
        <time>2013-09-15T07:36:56Z</time>
      </trkpt>
      <trkpt lat="49.88461" lon="2.42346">
        <ele>11.5</ele>
        <time>2013-09-15T07:37:06Z</time>
      </trkpt>
      <trkpt lat="49.88462" lon="2.42368">
        <ele>12.2</ele>
        <time>2013-09-15T07:37:15Z</time>
      </trkpt>
      <trkpt lat="49.88471" lon="2.42386">
        <ele>13</ele>
        <time>2013-09-15T07:37:24Z</time>
      </trkpt>
      <trkpt lat="49.88477" lon="2.42406">
        <ele>13.8</ele>
        <time>2013-09-15T07:37:35Z</time>
      </trkpt>
      <trkpt lat="49.88476" lon="2.42428">
        <ele>14.9</ele>
        <time>2013-09-15T07:37:44Z</time>
      </trkpt>
      <trkpt lat="49.88472" lon="2.42449">
        <ele>16.1</ele>
        <time>2013-09-15T07:37:53Z</time>
      </trkpt>
      <trkpt lat="49.88469" lon="2.42472">
        <ele>16</ele>
        <time>2013-09-15T07:38:05Z</time>
      </trkpt>
      <trkpt lat="49.88468" lon="2.42494">
        <ele>15.4</ele>
        <time>2013-09-15T07:38:16Z</time>
      </trkpt>
      <trkpt lat="49.88465" lon="2.42515">
        <ele>15.1</ele>
        <time>2013-09-15T07:38:23Z</time>
      </trkpt>
      <trkpt lat="49.88463" lon="2.42537">
        <ele>14.6</ele>
        <time>2013-09-15T07:38:32Z</time>
      </trkpt>
      <trkpt lat="49.88457" lon="2.42557">
        <ele>14.1</ele>
        <time>2013-09-15T07:38:41Z</time>
      </trkpt>
      <trkpt lat="49.88454" lon="2.42577">
        <ele>13.6</ele>
        <time>2013-09-15T07:38:51Z</time>
      </trkpt>
      <trkpt lat="49.88453" lon="2.42598">
        <ele>13</ele>
        <time>2013-09-15T07:39:02Z</time>
      </trkpt>
      <trkpt lat="49.88456" lon="2.4262">
        <ele>12.6</ele>
        <time>2013-09-15T07:39:10Z</time>
      </trkpt>
      <trkpt lat="49.88453" lon="2.42642">
        <ele>12.1</ele>
        <time>2013-09-15T07:39:20Z</time>
      </trkpt>
      <trkpt lat="49.88452" lon="2.42663">
        <ele>13.9</ele>
        <time>2013-09-15T07:39:30Z</time>
      </trkpt>
      <trkpt lat="49.88452" lon="2.42686">
        <ele>16.2</ele>
        <time>2013-09-15T07:39:40Z</time>
      </trkpt>
      <trkpt lat="49.88448" lon="2.42707">
        <ele>17.8</ele>
        <time>2013-09-15T07:39:49Z</time>
      </trkpt>
      <trkpt lat="49.88445" lon="2.42728">
        <ele>19.8</ele>
        <time>2013-09-15T07:40:00Z</time>
      </trkpt>
      <trkpt lat="49.88446" lon="2.4275">
        <ele>21.4</ele>
        <time>2013-09-15T07:40:09Z</time>
      </trkpt>
      <trkpt lat="49.88445" lon="2.42773">
        <ele>21.2</ele>
        <time>2013-09-15T07:40:19Z</time>
      </trkpt>
      <trkpt lat="49.88442" lon="2.42794">
        <ele>20</ele>
        <time>2013-09-15T07:40:29Z</time>
      </trkpt>
      <trkpt lat="49.88438" lon="2.42816">
        <ele>21</ele>
        <time>2013-09-15T07:40:39Z</time>
      </trkpt>
      <trkpt lat="49.88435" lon="2.42837">
        <ele>16.9</ele>
        <time>2013-09-15T07:40:50Z</time>
      </trkpt>
      <trkpt lat="49.88432" lon="2.42858">
        <ele>14.4</ele>
        <time>2013-09-15T07:40:58Z</time>
      </trkpt>
      <trkpt lat="49.88426" lon="2.42879">
        <ele>12.3</ele>
        <time>2013-09-15T07:41:09Z</time>
      </trkpt>
      <trkpt lat="49.8842" lon="2.429">
        <ele>12.7</ele>
        <time>2013-09-15T07:41:19Z</time>
      </trkpt>
      <trkpt lat="49.88411" lon="2.42918">
        <ele>13.1</ele>
        <time>2013-09-15T07:41:29Z</time>
      </trkpt>
      <trkpt lat="49.88406" lon="2.42938">
        <ele>13.6</ele>
        <time>2013-09-15T07:41:41Z</time>
      </trkpt>
      <trkpt lat="49.88399" lon="2.42958">
        <ele>14</ele>
        <time>2013-09-15T07:41:50Z</time>
      </trkpt>
      <trkpt lat="49.8839" lon="2.42974">
        <ele>14.6</ele>
        <time>2013-09-15T07:42:00Z</time>
      </trkpt>
      <trkpt lat="49.88383" lon="2.42994">
        <ele>15.2</ele>
        <time>2013-09-15T07:42:10Z</time>
      </trkpt>
      <trkpt lat="49.8838" lon="2.43016">
        <ele>15.8</ele>
        <time>2013-09-15T07:42:19Z</time>
      </trkpt>
      <trkpt lat="49.88382" lon="2.43038">
        <ele>16.5</ele>
        <time>2013-09-15T07:42:29Z</time>
      </trkpt>
      <trkpt lat="49.88385" lon="2.43058">
        <ele>17.3</ele>
        <time>2013-09-15T07:42:38Z</time>
      </trkpt>
      <trkpt lat="49.88393" lon="2.43075">
        <ele>19</ele>
        <time>2013-09-15T07:42:49Z</time>
      </trkpt>
      <trkpt lat="49.88405" lon="2.43088">
        <ele>21.7</ele>
        <time>2013-09-15T07:42:59Z</time>
      </trkpt>
      <trkpt lat="49.88417" lon="2.43102">
        <ele>21.7</ele>
        <time>2013-09-15T07:43:09Z</time>
      </trkpt>
      <trkpt lat="49.88427" lon="2.43118">
        <ele>21.3</ele>
        <time>2013-09-15T07:43:18Z</time>
      </trkpt>
      <trkpt lat="49.88439" lon="2.43131">
        <ele>20.8</ele>
        <time>2013-09-15T07:43:29Z</time>
      </trkpt>
      <trkpt lat="49.88449" lon="2.43145">
        <ele>19.9</ele>
        <time>2013-09-15T07:43:38Z</time>
      </trkpt>
      <trkpt lat="49.88458" lon="2.43161">
        <ele>18.9</ele>
        <time>2013-09-15T07:43:47Z</time>
      </trkpt>
      <trkpt lat="49.88467" lon="2.43177">
        <ele>17.8</ele>
        <time>2013-09-15T07:43:58Z</time>
      </trkpt>
      <trkpt lat="49.88476" lon="2.43193">
        <ele>16.9</ele>
        <time>2013-09-15T07:44:06Z</time>
      </trkpt>
      <trkpt lat="49.88483" lon="2.43212">
        <ele>15.9</ele>
        <time>2013-09-15T07:44:16Z</time>
      </trkpt>
      <trkpt lat="49.88489" lon="2.43233">
        <ele>14.8</ele>
        <time>2013-09-15T07:44:26Z</time>
      </trkpt>
      <trkpt lat="49.88489" lon="2.43253">
        <ele>14</ele>
        <time>2013-09-15T07:44:35Z</time>
      </trkpt>
      <trkpt lat="49.88495" lon="2.43274">
        <ele>17</ele>
        <time>2013-09-15T07:44:45Z</time>
      </trkpt>
      <trkpt lat="49.88499" lon="2.43296">
        <ele>14.8</ele>
        <time>2013-09-15T07:44:53Z</time>
      </trkpt>
      <trkpt lat="49.885" lon="2.43317">
        <ele>15</ele>
        <time>2013-09-15T07:45:02Z</time>
      </trkpt>
      <trkpt lat="49.88504" lon="2.43338">
        <ele>16.5</ele>
        <time>2013-09-15T07:45:10Z</time>
      </trkpt>
      <trkpt lat="49.88503" lon="2.4336">
        <ele>14.8</ele>
        <time>2013-09-15T07:45:21Z</time>
      </trkpt>
      <trkpt lat="49.88504" lon="2.43382">
        <ele>12.4</ele>
        <time>2013-09-15T07:45:31Z</time>
      </trkpt>
      <trkpt lat="49.88503" lon="2.43405">
        <ele>10.1</ele>
        <time>2013-09-15T07:45:41Z</time>
      </trkpt>
      <trkpt lat="49.88503" lon="2.43426">
        <ele>10</ele>
        <time>2013-09-15T07:45:52Z</time>
      </trkpt>
      <trkpt lat="49.88504" lon="2.43447">
        <ele>12.5</ele>
        <time>2013-09-15T07:46:01Z</time>
      </trkpt>
      <trkpt lat="49.88504" lon="2.4347">
        <ele>13.5</ele>
        <time>2013-09-15T07:46:11Z</time>
      </trkpt>
      <trkpt lat="49.88504" lon="2.43493">
        <ele>14.1</ele>
        <time>2013-09-15T07:46:22Z</time>
      </trkpt>
      <trkpt lat="49.88503" lon="2.43514">
        <ele>14.9</ele>
        <time>2013-09-15T07:46:34Z</time>
      </trkpt>
      <trkpt lat="49.88504" lon="2.43535">
        <ele>15.4</ele>
        <time>2013-09-15T07:46:43Z</time>
      </trkpt>
      <trkpt lat="49.88502" lon="2.43557">
        <ele>15.9</ele>
        <time>2013-09-15T07:46:54Z</time>
      </trkpt>
      <trkpt lat="49.88503" lon="2.43578">
        <ele>14.4</ele>
        <time>2013-09-15T07:47:05Z</time>
      </trkpt>
      <trkpt lat="49.88502" lon="2.436">
        <ele>13.1</ele>
        <time>2013-09-15T07:47:15Z</time>
      </trkpt>
      <trkpt lat="49.885" lon="2.43623">
        <ele>13.9</ele>
        <time>2013-09-15T07:47:24Z</time>
      </trkpt>
      <trkpt lat="49.88503" lon="2.43646">
        <ele>15.1</ele>
        <time>2013-09-15T07:47:34Z</time>
      </trkpt>
      <trkpt lat="49.88502" lon="2.43667">
        <ele>16.2</ele>
        <time>2013-09-15T07:47:44Z</time>
      </trkpt>
      <trkpt lat="49.88499" lon="2.4369">
        <ele>17.1</ele>
        <time>2013-09-15T07:47:54Z</time>
      </trkpt>
      <trkpt lat="49.88494" lon="2.4371">
        <ele>17.8</ele>
        <time>2013-09-15T07:48:02Z</time>
      </trkpt>
      <trkpt lat="49.88493" lon="2.43732">
        <ele>18.6</ele>
        <time>2013-09-15T07:48:12Z</time>
      </trkpt>
      <trkpt lat="49.88494" lon="2.43754">
        <ele>17.9</ele>
        <time>2013-09-15T07:48:20Z</time>
      </trkpt>
      <trkpt lat="49.88497" lon="2.43774">
        <ele>15.7</ele>
        <time>2013-09-15T07:48:30Z</time>
      </trkpt>
      <trkpt lat="49.88501" lon="2.43795">
        <ele>14.3</ele>
        <time>2013-09-15T07:48:42Z</time>
      </trkpt>
      <trkpt lat="49.88499" lon="2.43817">
        <ele>13.1</ele>
        <time>2013-09-15T07:48:54Z</time>
      </trkpt>
      <trkpt lat="49.88502" lon="2.43839">
        <ele>14.6</ele>
        <time>2013-09-15T07:49:07Z</time>
      </trkpt>
      <trkpt lat="49.88501" lon="2.43863">
        <ele>15.9</ele>
        <time>2013-09-15T07:49:18Z</time>
      </trkpt>
      <trkpt lat="49.88501" lon="2.43884">
        <ele>16.8</ele>
        <time>2013-09-15T07:49:26Z</time>
      </trkpt>
      <trkpt lat="49.88501" lon="2.43906">
        <ele>17.9</ele>
        <time>2013-09-15T07:49:35Z</time>
      </trkpt>
      <trkpt lat="49.88501" lon="2.43929">
        <ele>19</ele>
        <time>2013-09-15T07:49:44Z</time>
      </trkpt>
      <trkpt lat="49.88501" lon="2.4395">
        <ele>20.3</ele>
        <time>2013-09-15T07:49:54Z</time>
      </trkpt>
      <trkpt lat="49.88503" lon="2.43971">
        <ele>22.7</ele>
        <time>2013-09-15T07:50:04Z</time>
      </trkpt>
      <trkpt lat="49.88504" lon="2.43993">
        <ele>22.6</ele>
        <time>2013-09-15T07:50:13Z</time>
      </trkpt>
      <trkpt lat="49.88507" lon="2.44015">
        <ele>22.2</ele>
        <time>2013-09-15T07:50:22Z</time>
      </trkpt>
      <trkpt lat="49.88513" lon="2.44037">
        <ele>20.2</ele>
        <time>2013-09-15T07:50:34Z</time>
      </trkpt>
      <trkpt lat="49.88515" lon="2.44059">
        <ele>17.7</ele>
        <time>2013-09-15T07:50:44Z</time>
      </trkpt>
      <trkpt lat="49.88519" lon="2.4408">
        <ele>15</ele>
        <time>2013-09-15T07:50:55Z</time>
      </trkpt>
      <trkpt lat="49.88519" lon="2.44101">
        <ele>15</ele>
        <time>2013-09-15T07:51:03Z</time>
      </trkpt>
      <trkpt lat="49.88526" lon="2.44121">
        <ele>17.1</ele>
        <time>2013-09-15T07:51:14Z</time>
      </trkpt>
      <trkpt lat="49.88528" lon="2.44143">
        <ele>17.4</ele>
        <time>2013-09-15T07:51:24Z</time>
      </trkpt>
      <trkpt lat="49.88532" lon="2.44164">
        <ele>17.7</ele>
        <time>2013-09-15T07:51:34Z</time>
      </trkpt>
      <trkpt lat="49.88537" lon="2.44184">
        <ele>18</ele>
        <time>2013-09-15T07:51:47Z</time>
      </trkpt>
      <trkpt lat="49.88542" lon="2.44204">
        <ele>18.3</ele>
        <time>2013-09-15T07:51:56Z</time>
      </trkpt>
      <trkpt lat="49.88545" lon="2.44225">
        <ele>18.6</ele>
        <time>2013-09-15T07:52:06Z</time>
      </trkpt>
      <trkpt lat="49.88547" lon="2.44247">
        <ele>18.8</ele>
        <time>2013-09-15T07:52:14Z</time>
      </trkpt>
      <trkpt lat="49.88554" lon="2.44265">
        <ele>19</ele>
        <time>2013-09-15T07:52:21Z</time>
      </trkpt>
      <trkpt lat="49.88559" lon="2.44286">
        <ele>19.3</ele>
        <time>2013-09-15T07:52:32Z</time>
      </trkpt>
      <trkpt lat="49.88558" lon="2.44309">
        <ele>19.6</ele>
        <time>2013-09-15T07:52:42Z</time>
      </trkpt>
      <trkpt lat="49.88558" lon="2.44331">
        <ele>19.9</ele>
        <time>2013-09-15T07:52:54Z</time>
      </trkpt>
      <trkpt lat="49.88561" lon="2.44352">
        <ele>18.7</ele>
        <time>2013-09-15T07:53:03Z</time>
      </trkpt>
      <trkpt lat="49.88565" lon="2.44373">
        <ele>17.8</ele>
        <time>2013-09-15T07:53:14Z</time>
      </trkpt>
      <trkpt lat="49.88555" lon="2.44384">
        <ele>20.3</ele>
        <time>2013-09-15T07:53:21Z</time>
      </trkpt>
      <trkpt lat="49.88559" lon="2.44406">
        <ele>20.4</ele>
        <time>2013-09-15T07:53:28Z</time>
      </trkpt>
      <trkpt lat="49.88561" lon="2.44427">
        <ele>19.3</ele>
        <time>2013-09-15T07:53:38Z</time>
      </trkpt>
      <trkpt lat="49.88565" lon="2.44448">
        <ele>18.2</ele>
        <time>2013-09-15T07:53:47Z</time>
      </trkpt>
      <trkpt lat="49.88571" lon="2.44463">
        <ele>20.7</ele>
        <time>2013-09-15T07:53:55Z</time>
      </trkpt>
      <trkpt lat="49.88566" lon="2.44484">
        <ele>22.3</ele>
        <time>2013-09-15T07:54:03Z</time>
      </trkpt>
      <trkpt lat="49.88566" lon="2.44506">
        <ele>19.3</ele>
        <time>2013-09-15T07:54:15Z</time>
      </trkpt>
      <trkpt lat="49.88572" lon="2.44527">
        <ele>17.5</ele>
        <time>2013-09-15T07:54:26Z</time>
      </trkpt>
      <trkpt lat="49.8857" lon="2.44548">
        <ele>19.8</ele>
        <time>2013-09-15T07:54:35Z</time>
      </trkpt>
      <trkpt lat="49.88569" lon="2.4457">
        <ele>21.3</ele>
        <time>2013-09-15T07:54:45Z</time>
      </trkpt>
      <trkpt lat="49.8857" lon="2.44593">
        <ele>21.9</ele>
        <time>2013-09-15T07:54:57Z</time>
      </trkpt>
      <trkpt lat="49.88569" lon="2.44615">
        <ele>22.2</ele>
        <time>2013-09-15T07:55:03Z</time>
      </trkpt>
      <trkpt lat="49.88571" lon="2.44636">
        <ele>22.8</ele>
        <time>2013-09-15T07:55:16Z</time>
      </trkpt>
      <trkpt lat="49.88571" lon="2.44659">
        <ele>23.3</ele>
        <time>2013-09-15T07:55:25Z</time>
      </trkpt>
      <trkpt lat="49.88572" lon="2.44682">
        <ele>23.7</ele>
        <time>2013-09-15T07:55:34Z</time>
      </trkpt>
      <trkpt lat="49.88573" lon="2.44704">
        <ele>24.2</ele>
        <time>2013-09-15T07:55:43Z</time>
      </trkpt>
      <trkpt lat="49.88572" lon="2.44725">
        <ele>24.8</ele>
        <time>2013-09-15T07:55:55Z</time>
      </trkpt>
      <trkpt lat="49.88573" lon="2.44747">
        <ele>24.3</ele>
        <time>2013-09-15T07:56:06Z</time>
      </trkpt>
      <trkpt lat="49.88575" lon="2.4477">
        <ele>23.1</ele>
        <time>2013-09-15T07:56:18Z</time>
      </trkpt>
      <trkpt lat="49.88573" lon="2.44791">
        <ele>22.3</ele>
        <time>2013-09-15T07:56:26Z</time>
      </trkpt>
      <trkpt lat="49.88574" lon="2.44813">
        <ele>21.4</ele>
        <time>2013-09-15T07:56:35Z</time>
      </trkpt>
      <trkpt lat="49.88577" lon="2.44834">
        <ele>23.2</ele>
        <time>2013-09-15T07:56:45Z</time>
      </trkpt>
      <trkpt lat="49.88584" lon="2.44852">
        <ele>29</ele>
        <time>2013-09-15T07:56:55Z</time>
      </trkpt>
      <trkpt lat="49.88593" lon="2.4487">
        <ele>26</ele>
        <time>2013-09-15T07:57:11Z</time>
      </trkpt>
      <trkpt lat="49.88603" lon="2.44886">
        <ele>23.4</ele>
        <time>2013-09-15T07:57:18Z</time>
      </trkpt>
      <trkpt lat="49.88613" lon="2.449">
        <ele>20</ele>
        <time>2013-09-15T07:57:27Z</time>
      </trkpt>
      <trkpt lat="49.88625" lon="2.44908">
        <ele>16.7</ele>
        <time>2013-09-15T07:57:35Z</time>
      </trkpt>
      <trkpt lat="49.88636" lon="2.44921">
        <ele>17.2</ele>
        <time>2013-09-15T07:57:45Z</time>
      </trkpt>
      <trkpt lat="49.88645" lon="2.44937">
        <ele>20.8</ele>
        <time>2013-09-15T07:57:53Z</time>
      </trkpt>
      <trkpt lat="49.88659" lon="2.4494">
        <ele>24.8</ele>
        <time>2013-09-15T07:58:03Z</time>
      </trkpt>
      <trkpt lat="49.88672" lon="2.44944">
        <ele>23.6</ele>
        <time>2013-09-15T07:58:13Z</time>
      </trkpt>
      <trkpt lat="49.88686" lon="2.44941">
        <ele>22.7</ele>
        <time>2013-09-15T07:58:21Z</time>
      </trkpt>
      <trkpt lat="49.887" lon="2.4494">
        <ele>21.5</ele>
        <time>2013-09-15T07:58:32Z</time>
      </trkpt>
      <trkpt lat="49.88714" lon="2.4494">
        <ele>20.5</ele>
        <time>2013-09-15T07:58:45Z</time>
      </trkpt>
      <trkpt lat="49.88729" lon="2.44941">
        <ele>19.9</ele>
        <time>2013-09-15T07:58:56Z</time>
      </trkpt>
      <trkpt lat="49.88743" lon="2.44943">
        <ele>19.4</ele>
        <time>2013-09-15T07:59:05Z</time>
      </trkpt>
      <trkpt lat="49.88758" lon="2.44946">
        <ele>18.9</ele>
        <time>2013-09-15T07:59:15Z</time>
      </trkpt>
      <trkpt lat="49.88772" lon="2.44951">
        <ele>18.3</ele>
        <time>2013-09-15T07:59:25Z</time>
      </trkpt>
      <trkpt lat="49.88785" lon="2.44959">
        <ele>22.6</ele>
        <time>2013-09-15T07:59:35Z</time>
      </trkpt>
      <trkpt lat="49.88798" lon="2.44969">
        <ele>24.3</ele>
        <time>2013-09-15T07:59:43Z</time>
      </trkpt>
      <trkpt lat="49.88808" lon="2.44983">
        <ele>23.2</ele>
        <time>2013-09-15T07:59:53Z</time>
      </trkpt>
      <trkpt lat="49.88818" lon="2.44998">
        <ele>22.1</ele>
        <time>2013-09-15T08:00:03Z</time>
      </trkpt>
      <trkpt lat="49.88829" lon="2.45012">
        <ele>20.7</ele>
        <time>2013-09-15T08:00:16Z</time>
      </trkpt>
      <trkpt lat="49.8884" lon="2.45025">
        <ele>19.3</ele>
        <time>2013-09-15T08:00:28Z</time>
      </trkpt>
      <trkpt lat="49.88851" lon="2.45039">
        <ele>19.7</ele>
        <time>2013-09-15T08:00:39Z</time>
      </trkpt>
      <trkpt lat="49.8886" lon="2.45054">
        <ele>20.2</ele>
        <time>2013-09-15T08:00:46Z</time>
      </trkpt>
      <trkpt lat="49.88873" lon="2.45066">
        <ele>21.2</ele>
        <time>2013-09-15T08:00:58Z</time>
      </trkpt>
      <trkpt lat="49.88886" lon="2.45076">
        <ele>21.8</ele>
        <time>2013-09-15T08:01:05Z</time>
      </trkpt>
      <trkpt lat="49.88899" lon="2.4508">
        <ele>22.6</ele>
        <time>2013-09-15T08:01:15Z</time>
      </trkpt>
      <trkpt lat="49.88913" lon="2.45081">
        <ele>23.5</ele>
        <time>2013-09-15T08:01:25Z</time>
      </trkpt>
      <trkpt lat="49.88927" lon="2.45085">
        <ele>24.5</ele>
        <time>2013-09-15T08:01:36Z</time>
      </trkpt>
      <trkpt lat="49.88941" lon="2.45093">
        <ele>25.3</ele>
        <time>2013-09-15T08:01:45Z</time>
      </trkpt>
      <trkpt lat="49.88955" lon="2.45096">
        <ele>25.7</ele>
        <time>2013-09-15T08:01:55Z</time>
      </trkpt>
      <trkpt lat="49.88968" lon="2.45105">
        <ele>24.4</ele>
        <time>2013-09-15T08:02:05Z</time>
      </trkpt>
      <trkpt lat="49.88981" lon="2.45112">
        <ele>23.4</ele>
        <time>2013-09-15T08:02:13Z</time>
      </trkpt>
      <trkpt lat="49.88995" lon="2.45115">
        <ele>24.9</ele>
        <time>2013-09-15T08:02:23Z</time>
      </trkpt>
      <trkpt lat="49.89008" lon="2.45125">
        <ele>24.3</ele>
        <time>2013-09-15T08:02:32Z</time>
      </trkpt>
      <trkpt lat="49.89015" lon="2.45143">
        <ele>23.2</ele>
        <time>2013-09-15T08:02:44Z</time>
      </trkpt>
      <trkpt lat="49.8902" lon="2.45165">
        <ele>25</ele>
        <time>2013-09-15T08:02:51Z</time>
      </trkpt>
      <trkpt lat="49.89028" lon="2.45185">
        <ele>24.6</ele>
        <time>2013-09-15T08:02:59Z</time>
      </trkpt>
      <trkpt lat="49.89034" lon="2.45205">
        <ele>24.2</ele>
        <time>2013-09-15T08:03:09Z</time>
      </trkpt>
      <trkpt lat="49.89042" lon="2.45223">
        <ele>23.6</ele>
        <time>2013-09-15T08:03:21Z</time>
      </trkpt>
      <trkpt lat="49.89055" lon="2.45229">
        <ele>23</ele>
        <time>2013-09-15T08:03:34Z</time>
      </trkpt>
      <trkpt lat="49.89063" lon="2.45247">
        <ele>22.7</ele>
        <time>2013-09-15T08:03:40Z</time>
      </trkpt>
      <trkpt lat="49.89076" lon="2.45251">
        <ele>22</ele>
        <time>2013-09-15T08:03:56Z</time>
      </trkpt>
      <trkpt lat="49.89091" lon="2.45251">
        <ele>23.6</ele>
        <time>2013-09-15T08:04:08Z</time>
      </trkpt>
      <trkpt lat="49.89105" lon="2.45247">
        <ele>24.6</ele>
        <time>2013-09-15T08:04:15Z</time>
      </trkpt>
      <trkpt lat="49.89117" lon="2.45237">
        <ele>26.1</ele>
        <time>2013-09-15T08:04:26Z</time>
      </trkpt>
      <trkpt lat="49.89131" lon="2.45229">
        <ele>27</ele>
        <time>2013-09-15T08:04:33Z</time>
      </trkpt>
      <trkpt lat="49.89144" lon="2.45224">
        <ele>28.5</ele>
        <time>2013-09-15T08:04:41Z</time>
      </trkpt>
      <trkpt lat="49.89162" lon="2.45215">
        <ele>33</ele>
        <time>2013-09-15T08:04:51Z</time>
      </trkpt>
      <trkpt lat="49.89175" lon="2.45207">
        <ele>37</ele>
        <time>2013-09-15T08:05:03Z</time>
      </trkpt>
      <trkpt lat="49.8919" lon="2.45203">
        <ele>34.5</ele>
        <time>2013-09-15T08:05:13Z</time>
      </trkpt>
      <trkpt lat="49.89203" lon="2.45205">
        <ele>30.4</ele>
        <time>2013-09-15T08:05:23Z</time>
      </trkpt>
      <trkpt lat="49.89216" lon="2.45198">
        <ele>32.1</ele>
        <time>2013-09-15T08:05:33Z</time>
      </trkpt>
      <trkpt lat="49.89231" lon="2.45195">
        <ele>33.9</ele>
        <time>2013-09-15T08:05:42Z</time>
      </trkpt>
      <trkpt lat="49.89245" lon="2.45191">
        <ele>32.9</ele>
        <time>2013-09-15T08:05:49Z</time>
      </trkpt>
      <trkpt lat="49.89259" lon="2.45187">
        <ele>31.1</ele>
        <time>2013-09-15T08:06:02Z</time>
      </trkpt>
      <trkpt lat="49.89273" lon="2.45183">
        <ele>30.6</ele>
        <time>2013-09-15T08:06:11Z</time>
      </trkpt>
      <trkpt lat="49.89287" lon="2.45181">
        <ele>29.9</ele>
        <time>2013-09-15T08:06:22Z</time>
      </trkpt>
      <trkpt lat="49.89303" lon="2.45182">
        <ele>29.3</ele>
        <time>2013-09-15T08:06:33Z</time>
      </trkpt>
      <trkpt lat="49.89317" lon="2.45186">
        <ele>28.9</ele>
        <time>2013-09-15T08:06:40Z</time>
      </trkpt>
      <trkpt lat="49.8933" lon="2.45193">
        <ele>28.3</ele>
        <time>2013-09-15T08:06:51Z</time>
      </trkpt>
      <trkpt lat="49.89343" lon="2.45204">
        <ele>27.6</ele>
        <time>2013-09-15T08:07:04Z</time>
      </trkpt>
      <trkpt lat="49.89355" lon="2.45216">
        <ele>27.1</ele>
        <time>2013-09-15T08:07:13Z</time>
      </trkpt>
      <trkpt lat="49.89365" lon="2.45233">
        <ele>26.5</ele>
        <time>2013-09-15T08:07:23Z</time>
      </trkpt>
      <trkpt lat="49.89375" lon="2.45248">
        <ele>26</ele>
        <time>2013-09-15T08:07:32Z</time>
      </trkpt>
      <trkpt lat="49.89385" lon="2.45263">
        <ele>25.3</ele>
        <time>2013-09-15T08:07:43Z</time>
      </trkpt>
      <trkpt lat="49.89396" lon="2.45277">
        <ele>24.1</ele>
        <time>2013-09-15T08:07:54Z</time>
      </trkpt>
      <trkpt lat="49.89406" lon="2.45292">
        <ele>22.4</ele>
        <time>2013-09-15T08:08:03Z</time>
      </trkpt>
      <trkpt lat="49.89417" lon="2.45307">
        <ele>23.2</ele>
        <time>2013-09-15T08:08:15Z</time>
      </trkpt>
      <trkpt lat="49.89427" lon="2.45322">
        <ele>23.5</ele>
        <time>2013-09-15T08:08:24Z</time>
      </trkpt>
      <trkpt lat="49.89439" lon="2.45333">
        <ele>24.1</ele>
        <time>2013-09-15T08:08:37Z</time>
      </trkpt>
      <trkpt lat="49.89446" lon="2.45352">
        <ele>24.4</ele>
        <time>2013-09-15T08:08:46Z</time>
      </trkpt>
      <trkpt lat="49.89456" lon="2.45371">
        <ele>24.8</ele>
        <time>2013-09-15T08:08:55Z</time>
      </trkpt>
      <trkpt lat="49.89466" lon="2.45386">
        <ele>25.2</ele>
        <time>2013-09-15T08:09:05Z</time>
      </trkpt>
      <trkpt lat="49.89477" lon="2.45399">
        <ele>25.5</ele>
        <time>2013-09-15T08:09:13Z</time>
      </trkpt>
      <trkpt lat="49.89489" lon="2.45408">
        <ele>25.8</ele>
        <time>2013-09-15T08:09:25Z</time>
      </trkpt>
      <trkpt lat="49.89502" lon="2.45418">
        <ele>24.1</ele>
        <time>2013-09-15T08:09:35Z</time>
      </trkpt>
      <trkpt lat="49.89516" lon="2.45425">
        <ele>22.5</ele>
        <time>2013-09-15T08:09:43Z</time>
      </trkpt>
      <trkpt lat="49.89549" lon="2.45425">
        <ele>21.1</ele>
        <time>2013-09-15T08:10:07Z</time>
      </trkpt>
      <trkpt lat="49.89549" lon="2.45425">
        <ele>21.1</ele>
        <time>2013-09-15T08:17:23Z</time>
      </trkpt>
      <trkpt lat="49.89567" lon="2.45422">
        <ele>22.2</ele>
        <time>2013-09-15T08:17:24Z</time>
      </trkpt>
      <trkpt lat="49.89581" lon="2.4541">
        <ele>28.7</ele>
        <time>2013-09-15T08:17:38Z</time>
      </trkpt>
      <trkpt lat="49.89581" lon="2.4541">
        <ele>28.7</ele>
        <time>2013-09-15T08:19:32Z</time>
      </trkpt>
      <trkpt lat="49.89589" lon="2.4539">
        <ele>28</ele>
        <time>2013-09-15T08:19:49Z</time>
      </trkpt>
      <trkpt lat="49.89589" lon="2.4539">
        <ele>28</ele>
        <time>2013-09-15T08:26:26Z</time>
      </trkpt>
      <trkpt lat="49.89597" lon="2.45372">
        <ele>23.3</ele>
        <time>2013-09-15T08:26:27Z</time>
      </trkpt>
      <trkpt lat="49.89608" lon="2.45359">
        <ele>28.8</ele>
        <time>2013-09-15T08:26:44Z</time>
      </trkpt>
      <trkpt lat="49.89622" lon="2.45357">
        <ele>29.2</ele>
        <time>2013-09-15T08:27:00Z</time>
      </trkpt>
      <trkpt lat="49.89636" lon="2.45361">
        <ele>28.2</ele>
        <time>2013-09-15T08:27:16Z</time>
      </trkpt>
      <trkpt lat="49.89649" lon="2.45373">
        <ele>27.1</ele>
        <time>2013-09-15T08:27:29Z</time>
      </trkpt>
      <trkpt lat="49.89663" lon="2.45373">
        <ele>23.8</ele>
        <time>2013-09-15T08:28:00Z</time>
      </trkpt>
      <trkpt lat="49.89677" lon="2.45379">
        <ele>22</ele>
        <time>2013-09-15T08:28:24Z</time>
      </trkpt>
      <trkpt lat="49.8969" lon="2.45385">
        <ele>21</ele>
        <time>2013-09-15T08:28:42Z</time>
      </trkpt>
      <trkpt lat="49.89703" lon="2.45397">
        <ele>20</ele>
        <time>2013-09-15T08:28:55Z</time>
      </trkpt>
      <trkpt lat="49.89715" lon="2.45407">
        <ele>18.3</ele>
        <time>2013-09-15T08:29:10Z</time>
      </trkpt>
      <trkpt lat="49.89728" lon="2.45395">
        <ele>22.2</ele>
        <time>2013-09-15T08:29:33Z</time>
      </trkpt>
      <trkpt lat="49.89728" lon="2.45395">
        <ele>22.2</ele>
        <time>2013-09-15T08:43:34Z</time>
      </trkpt>
      <trkpt lat="49.89733" lon="2.4538">
        <ele>23.9</ele>
        <time>2013-09-15T08:43:38Z</time>
      </trkpt>
      <trkpt lat="49.89733" lon="2.45359">
        <ele>26.9</ele>
        <time>2013-09-15T08:43:52Z</time>
      </trkpt>
      <trkpt lat="49.89737" lon="2.45339">
        <ele>26.2</ele>
        <time>2013-09-15T08:44:07Z</time>
      </trkpt>
      <trkpt lat="49.89739" lon="2.45318">
        <ele>25.6</ele>
        <time>2013-09-15T08:44:19Z</time>
      </trkpt>
      <trkpt lat="49.89737" lon="2.45295">
        <ele>24.9</ele>
        <time>2013-09-15T08:44:32Z</time>
      </trkpt>
      <trkpt lat="49.89737" lon="2.45273">
        <ele>24.3</ele>
        <time>2013-09-15T08:44:44Z</time>
      </trkpt>
      <trkpt lat="49.89738" lon="2.4525">
        <ele>24.6</ele>
        <time>2013-09-15T08:44:55Z</time>
      </trkpt>
      <trkpt lat="49.89746" lon="2.45232">
        <ele>26.2</ele>
        <time>2013-09-15T08:45:07Z</time>
      </trkpt>
      <trkpt lat="49.89759" lon="2.4523">
        <ele>23.7</ele>
        <time>2013-09-15T08:45:22Z</time>
      </trkpt>
      <trkpt lat="49.89772" lon="2.45224">
        <ele>15.3</ele>
        <time>2013-09-15T08:45:36Z</time>
      </trkpt>
      <trkpt lat="49.89787" lon="2.45219">
        <ele>18</ele>
        <time>2013-09-15T08:45:46Z</time>
      </trkpt>
      <trkpt lat="49.89799" lon="2.45207">
        <ele>22.1</ele>
        <time>2013-09-15T08:45:56Z</time>
      </trkpt>
      <trkpt lat="49.89794" lon="2.45187">
        <ele>23.2</ele>
        <time>2013-09-15T08:46:09Z</time>
      </trkpt>
      <trkpt lat="49.89781" lon="2.4518">
        <ele>21.9</ele>
        <time>2013-09-15T08:46:19Z</time>
      </trkpt>
      <trkpt lat="49.89773" lon="2.45168">
        <ele>21.6</ele>
        <time>2013-09-15T08:46:28Z</time>
      </trkpt>
      <trkpt lat="49.89771" lon="2.45147">
        <ele>25</ele>
        <time>2013-09-15T08:46:38Z</time>
      </trkpt>
      <trkpt lat="49.89764" lon="2.45129">
        <ele>23.2</ele>
        <time>2013-09-15T08:46:48Z</time>
      </trkpt>
      <trkpt lat="49.89759" lon="2.45109">
        <ele>24.5</ele>
        <time>2013-09-15T08:46:57Z</time>
      </trkpt>
      <trkpt lat="49.89751" lon="2.45092">
        <ele>26.8</ele>
        <time>2013-09-15T08:47:09Z</time>
      </trkpt>
      <trkpt lat="49.89739" lon="2.45079">
        <ele>28</ele>
        <time>2013-09-15T08:47:21Z</time>
      </trkpt>
      <trkpt lat="49.89726" lon="2.45071">
        <ele>28.8</ele>
        <time>2013-09-15T08:47:31Z</time>
      </trkpt>
      <trkpt lat="49.89713" lon="2.45068">
        <ele>29.8</ele>
        <time>2013-09-15T08:47:42Z</time>
      </trkpt>
      <trkpt lat="49.89699" lon="2.45066">
        <ele>32.8</ele>
        <time>2013-09-15T08:47:51Z</time>
      </trkpt>
      <trkpt lat="49.89685" lon="2.45069">
        <ele>31.4</ele>
        <time>2013-09-15T08:47:59Z</time>
      </trkpt>
      <trkpt lat="49.8967" lon="2.45068">
        <ele>32</ele>
        <time>2013-09-15T08:48:08Z</time>
      </trkpt>
      <trkpt lat="49.89656" lon="2.45068">
        <ele>33.9</ele>
        <time>2013-09-15T08:48:22Z</time>
      </trkpt>
      <trkpt lat="49.89641" lon="2.45071">
        <ele>35.6</ele>
        <time>2013-09-15T08:48:34Z</time>
      </trkpt>
      <trkpt lat="49.89627" lon="2.45075">
        <ele>36.7</ele>
        <time>2013-09-15T08:48:42Z</time>
      </trkpt>
      <trkpt lat="49.89614" lon="2.45074">
        <ele>33.5</ele>
        <time>2013-09-15T08:48:52Z</time>
      </trkpt>
      <trkpt lat="49.896" lon="2.45076">
        <ele>26</ele>
        <time>2013-09-15T08:49:05Z</time>
      </trkpt>
      <trkpt lat="49.89586" lon="2.4508">
        <ele>26</ele>
        <time>2013-09-15T08:49:12Z</time>
      </trkpt>
      <trkpt lat="49.89572" lon="2.45082">
        <ele>26</ele>
        <time>2013-09-15T08:49:24Z</time>
      </trkpt>
      <trkpt lat="49.89557" lon="2.45082">
        <ele>26</ele>
        <time>2013-09-15T08:49:34Z</time>
      </trkpt>
      <trkpt lat="49.89544" lon="2.45083">
        <ele>26</ele>
        <time>2013-09-15T08:49:42Z</time>
      </trkpt>
      <trkpt lat="49.89529" lon="2.45087">
        <ele>30</ele>
        <time>2013-09-15T08:49:54Z</time>
      </trkpt>
      <trkpt lat="49.89515" lon="2.45085">
        <ele>30.3</ele>
        <time>2013-09-15T08:50:04Z</time>
      </trkpt>
      <trkpt lat="49.89501" lon="2.45088">
        <ele>30.5</ele>
        <time>2013-09-15T08:50:15Z</time>
      </trkpt>
      <trkpt lat="49.89486" lon="2.45093">
        <ele>30.8</ele>
        <time>2013-09-15T08:50:25Z</time>
      </trkpt>
      <trkpt lat="49.89472" lon="2.45096">
        <ele>31.1</ele>
        <time>2013-09-15T08:50:37Z</time>
      </trkpt>
      <trkpt lat="49.89458" lon="2.45092">
        <ele>31.4</ele>
        <time>2013-09-15T08:50:46Z</time>
      </trkpt>
      <trkpt lat="49.89444" lon="2.4509">
        <ele>31.6</ele>
        <time>2013-09-15T08:50:57Z</time>
      </trkpt>
      <trkpt lat="49.89429" lon="2.45088">
        <ele>31.9</ele>
        <time>2013-09-15T08:51:08Z</time>
      </trkpt>
      <trkpt lat="49.89415" lon="2.45091">
        <ele>32.2</ele>
        <time>2013-09-15T08:51:19Z</time>
      </trkpt>
      <trkpt lat="49.894" lon="2.45088">
        <ele>32.5</ele>
        <time>2013-09-15T08:51:28Z</time>
      </trkpt>
      <trkpt lat="49.89385" lon="2.45087">
        <ele>32.7</ele>
        <time>2013-09-15T08:51:38Z</time>
      </trkpt>
      <trkpt lat="49.89372" lon="2.45077">
        <ele>33.3</ele>
        <time>2013-09-15T08:51:50Z</time>
      </trkpt>
      <trkpt lat="49.89363" lon="2.45058">
        <ele>35.5</ele>
        <time>2013-09-15T08:51:58Z</time>
      </trkpt>
      <trkpt lat="49.89355" lon="2.45041">
        <ele>38.9</ele>
        <time>2013-09-15T08:52:08Z</time>
      </trkpt>
      <trkpt lat="49.89342" lon="2.45049">
        <ele>34</ele>
        <time>2013-09-15T08:52:17Z</time>
      </trkpt>
      <trkpt lat="49.89331" lon="2.45064">
        <ele>34.3</ele>
        <time>2013-09-15T08:52:25Z</time>
      </trkpt>
      <trkpt lat="49.89318" lon="2.45069">
        <ele>34.6</ele>
        <time>2013-09-15T08:52:37Z</time>
      </trkpt>
      <trkpt lat="49.89306" lon="2.45058">
        <ele>35</ele>
        <time>2013-09-15T08:52:47Z</time>
      </trkpt>
      <trkpt lat="49.89294" lon="2.45045">
        <ele>35.3</ele>
        <time>2013-09-15T08:52:57Z</time>
      </trkpt>
      <trkpt lat="49.89285" lon="2.4503">
        <ele>35.6</ele>
        <time>2013-09-15T08:53:06Z</time>
      </trkpt>
      <trkpt lat="49.89272" lon="2.45022">
        <ele>35.8</ele>
        <time>2013-09-15T08:53:15Z</time>
      </trkpt>
      <trkpt lat="49.89263" lon="2.45005">
        <ele>36.1</ele>
        <time>2013-09-15T08:53:24Z</time>
      </trkpt>
      <trkpt lat="49.89252" lon="2.44993">
        <ele>36.6</ele>
        <time>2013-09-15T08:53:37Z</time>
      </trkpt>
      <trkpt lat="49.89242" lon="2.44978">
        <ele>36.9</ele>
        <time>2013-09-15T08:53:48Z</time>
      </trkpt>
      <trkpt lat="49.89232" lon="2.4496">
        <ele>36.7</ele>
        <time>2013-09-15T08:54:00Z</time>
      </trkpt>
      <trkpt lat="49.89221" lon="2.44948">
        <ele>36.4</ele>
        <time>2013-09-15T08:54:10Z</time>
      </trkpt>
      <trkpt lat="49.89211" lon="2.44932">
        <ele>36</ele>
        <time>2013-09-15T08:54:22Z</time>
      </trkpt>
      <trkpt lat="49.89202" lon="2.44916">
        <ele>35.7</ele>
        <time>2013-09-15T08:54:31Z</time>
      </trkpt>
      <trkpt lat="49.89193" lon="2.44898">
        <ele>35.4</ele>
        <time>2013-09-15T08:54:41Z</time>
      </trkpt>
      <trkpt lat="49.89182" lon="2.44886">
        <ele>35.1</ele>
        <time>2013-09-15T08:54:50Z</time>
      </trkpt>
      <trkpt lat="49.8917" lon="2.44875">
        <ele>34.8</ele>
        <time>2013-09-15T08:55:01Z</time>
      </trkpt>
      <trkpt lat="49.89157" lon="2.44868">
        <ele>34.5</ele>
        <time>2013-09-15T08:55:11Z</time>
      </trkpt>
      <trkpt lat="49.89145" lon="2.44855">
        <ele>34.2</ele>
        <time>2013-09-15T08:55:21Z</time>
      </trkpt>
      <trkpt lat="49.89133" lon="2.44843">
        <ele>33.9</ele>
        <time>2013-09-15T08:55:31Z</time>
      </trkpt>
      <trkpt lat="49.89123" lon="2.44828">
        <ele>33.6</ele>
        <time>2013-09-15T08:55:40Z</time>
      </trkpt>
      <trkpt lat="49.89111" lon="2.44817">
        <ele>33.3</ele>
        <time>2013-09-15T08:55:50Z</time>
      </trkpt>
      <trkpt lat="49.89099" lon="2.44803">
        <ele>33.3</ele>
        <time>2013-09-15T08:56:01Z</time>
      </trkpt>
      <trkpt lat="49.89089" lon="2.44788">
        <ele>34.3</ele>
        <time>2013-09-15T08:56:11Z</time>
      </trkpt>
      <trkpt lat="49.89077" lon="2.44778">
        <ele>35.4</ele>
        <time>2013-09-15T08:56:21Z</time>
      </trkpt>
      <trkpt lat="49.89068" lon="2.44762">
        <ele>36.4</ele>
        <time>2013-09-15T08:56:31Z</time>
      </trkpt>
      <trkpt lat="49.89061" lon="2.44744">
        <ele>37.9</ele>
        <time>2013-09-15T08:56:42Z</time>
      </trkpt>
      <trkpt lat="49.89054" lon="2.44726">
        <ele>39.8</ele>
        <time>2013-09-15T08:56:53Z</time>
      </trkpt>
      <trkpt lat="49.89044" lon="2.44712">
        <ele>38.3</ele>
        <time>2013-09-15T08:57:04Z</time>
      </trkpt>
      <trkpt lat="49.89033" lon="2.44698">
        <ele>37.2</ele>
        <time>2013-09-15T08:57:14Z</time>
      </trkpt>
      <trkpt lat="49.89023" lon="2.44681">
        <ele>36.3</ele>
        <time>2013-09-15T08:57:24Z</time>
      </trkpt>
      <trkpt lat="49.89013" lon="2.44667">
        <ele>35.3</ele>
        <time>2013-09-15T08:57:35Z</time>
      </trkpt>
      <trkpt lat="49.89003" lon="2.44653">
        <ele>34.2</ele>
        <time>2013-09-15T08:57:47Z</time>
      </trkpt>
      <trkpt lat="49.88992" lon="2.44638">
        <ele>31.5</ele>
        <time>2013-09-15T08:57:58Z</time>
      </trkpt>
      <trkpt lat="49.88983" lon="2.44621">
        <ele>28.8</ele>
        <time>2013-09-15T08:58:08Z</time>
      </trkpt>
      <trkpt lat="49.88971" lon="2.4461">
        <ele>31.3</ele>
        <time>2013-09-15T08:58:19Z</time>
      </trkpt>
      <trkpt lat="49.88964" lon="2.4459">
        <ele>34.2</ele>
        <time>2013-09-15T08:58:29Z</time>
      </trkpt>
      <trkpt lat="49.88954" lon="2.44575">
        <ele>34.5</ele>
        <time>2013-09-15T08:58:40Z</time>
      </trkpt>
      <trkpt lat="49.88945" lon="2.44558">
        <ele>34.9</ele>
        <time>2013-09-15T08:58:52Z</time>
      </trkpt>
      <trkpt lat="49.88935" lon="2.44542">
        <ele>35.2</ele>
        <time>2013-09-15T08:59:02Z</time>
      </trkpt>
      <trkpt lat="49.88924" lon="2.44528">
        <ele>35.5</ele>
        <time>2013-09-15T08:59:14Z</time>
      </trkpt>
      <trkpt lat="49.88916" lon="2.44509">
        <ele>35.8</ele>
        <time>2013-09-15T08:59:24Z</time>
      </trkpt>
      <trkpt lat="49.88909" lon="2.44489">
        <ele>36.1</ele>
        <time>2013-09-15T08:59:34Z</time>
      </trkpt>
      <trkpt lat="49.889" lon="2.44472">
        <ele>36.5</ele>
        <time>2013-09-15T08:59:46Z</time>
      </trkpt>
      <trkpt lat="49.88891" lon="2.44457">
        <ele>36.9</ele>
        <time>2013-09-15T08:59:59Z</time>
      </trkpt>
      <trkpt lat="49.88884" lon="2.44437">
        <ele>38.6</ele>
        <time>2013-09-15T09:00:10Z</time>
      </trkpt>
      <trkpt lat="49.88875" lon="2.4442">
        <ele>39.1</ele>
        <time>2013-09-15T09:00:23Z</time>
      </trkpt>
      <trkpt lat="49.88867" lon="2.44402">
        <ele>38.1</ele>
        <time>2013-09-15T09:00:33Z</time>
      </trkpt>
      <trkpt lat="49.88858" lon="2.44386">
        <ele>37</ele>
        <time>2013-09-15T09:00:43Z</time>
      </trkpt>
      <trkpt lat="49.88851" lon="2.44366">
        <ele>37.6</ele>
        <time>2013-09-15T09:00:53Z</time>
      </trkpt>
      <trkpt lat="49.88845" lon="2.44346">
        <ele>38.3</ele>
        <time>2013-09-15T09:01:05Z</time>
      </trkpt>
      <trkpt lat="49.88839" lon="2.44326">
        <ele>39.1</ele>
        <time>2013-09-15T09:01:17Z</time>
      </trkpt>
      <trkpt lat="49.88832" lon="2.44308">
        <ele>39.8</ele>
        <time>2013-09-15T09:01:28Z</time>
      </trkpt>
      <trkpt lat="49.88824" lon="2.4429">
        <ele>38.8</ele>
        <time>2013-09-15T09:01:39Z</time>
      </trkpt>
      <trkpt lat="49.88815" lon="2.44273">
        <ele>37.2</ele>
        <time>2013-09-15T09:01:49Z</time>
      </trkpt>
      <trkpt lat="49.88811" lon="2.44252">
        <ele>34.8</ele>
        <time>2013-09-15T09:01:58Z</time>
      </trkpt>
      <trkpt lat="49.88812" lon="2.4424">
        <ele>35.7</ele>
        <time>2013-09-15T09:02:10Z</time>
      </trkpt>
      <trkpt lat="49.88801" lon="2.44224">
        <ele>37.3</ele>
        <time>2013-09-15T09:02:19Z</time>
      </trkpt>
      <trkpt lat="49.88794" lon="2.44204">
        <ele>38.5</ele>
        <time>2013-09-15T09:02:28Z</time>
      </trkpt>
      <trkpt lat="49.88793" lon="2.44181">
        <ele>39.9</ele>
        <time>2013-09-15T09:02:38Z</time>
      </trkpt>
      <trkpt lat="49.88787" lon="2.44161">
        <ele>38.3</ele>
        <time>2013-09-15T09:02:45Z</time>
      </trkpt>
      <trkpt lat="49.8878" lon="2.44142">
        <ele>35.2</ele>
        <time>2013-09-15T09:02:56Z</time>
      </trkpt>
      <trkpt lat="49.88772" lon="2.44123">
        <ele>33.2</ele>
        <time>2013-09-15T09:03:06Z</time>
      </trkpt>
      <trkpt lat="49.88765" lon="2.44103">
        <ele>31.3</ele>
        <time>2013-09-15T09:03:19Z</time>
      </trkpt>
      <trkpt lat="49.8876" lon="2.44083">
        <ele>31</ele>
        <time>2013-09-15T09:03:30Z</time>
      </trkpt>
      <trkpt lat="49.88754" lon="2.44064">
        <ele>32</ele>
        <time>2013-09-15T09:03:41Z</time>
      </trkpt>
      <trkpt lat="49.88749" lon="2.44043">
        <ele>32</ele>
        <time>2013-09-15T09:03:51Z</time>
      </trkpt>
      <trkpt lat="49.88741" lon="2.44025">
        <ele>30.4</ele>
        <time>2013-09-15T09:04:02Z</time>
      </trkpt>
      <trkpt lat="49.88735" lon="2.44007">
        <ele>30.7</ele>
        <time>2013-09-15T09:04:11Z</time>
      </trkpt>
      <trkpt lat="49.8873" lon="2.43985">
        <ele>31.9</ele>
        <time>2013-09-15T09:04:22Z</time>
      </trkpt>
      <trkpt lat="49.88727" lon="2.43965">
        <ele>33.1</ele>
        <time>2013-09-15T09:04:33Z</time>
      </trkpt>
      <trkpt lat="49.88722" lon="2.43944">
        <ele>34.1</ele>
        <time>2013-09-15T09:04:45Z</time>
      </trkpt>
      <trkpt lat="49.88716" lon="2.43923">
        <ele>35.3</ele>
        <time>2013-09-15T09:04:58Z</time>
      </trkpt>
      <trkpt lat="49.88713" lon="2.43901">
        <ele>34.8</ele>
        <time>2013-09-15T09:05:10Z</time>
      </trkpt>
      <trkpt lat="49.88707" lon="2.4388">
        <ele>33.7</ele>
        <time>2013-09-15T09:05:20Z</time>
      </trkpt>
      <trkpt lat="49.88703" lon="2.43859">
        <ele>35.5</ele>
        <time>2013-09-15T09:05:31Z</time>
      </trkpt>
      <trkpt lat="49.88693" lon="2.43843">
        <ele>35.4</ele>
        <time>2013-09-15T09:05:42Z</time>
      </trkpt>
      <trkpt lat="49.88691" lon="2.43822">
        <ele>34.6</ele>
        <time>2013-09-15T09:05:53Z</time>
      </trkpt>
      <trkpt lat="49.88687" lon="2.43801">
        <ele>33.5</ele>
        <time>2013-09-15T09:06:09Z</time>
      </trkpt>
      <trkpt lat="49.88684" lon="2.43781">
        <ele>32.7</ele>
        <time>2013-09-15T09:06:20Z</time>
      </trkpt>
      <trkpt lat="49.8868" lon="2.43759">
        <ele>34.5</ele>
        <time>2013-09-15T09:06:36Z</time>
      </trkpt>
      <trkpt lat="49.88676" lon="2.43738">
        <ele>35.7</ele>
        <time>2013-09-15T09:06:44Z</time>
      </trkpt>
      <trkpt lat="49.88673" lon="2.43717">
        <ele>35</ele>
        <time>2013-09-15T09:06:54Z</time>
      </trkpt>
      <trkpt lat="49.88669" lon="2.43696">
        <ele>34.3</ele>
        <time>2013-09-15T09:07:03Z</time>
      </trkpt>
      <trkpt lat="49.88666" lon="2.43673">
        <ele>33.6</ele>
        <time>2013-09-15T09:07:12Z</time>
      </trkpt>
      <trkpt lat="49.88666" lon="2.4365">
        <ele>32.7</ele>
        <time>2013-09-15T09:07:21Z</time>
      </trkpt>
      <trkpt lat="49.88663" lon="2.43628">
        <ele>30.1</ele>
        <time>2013-09-15T09:07:34Z</time>
      </trkpt>
      <trkpt lat="49.88662" lon="2.43607">
        <ele>30.3</ele>
        <time>2013-09-15T09:07:45Z</time>
      </trkpt>
      <trkpt lat="49.88657" lon="2.43587">
        <ele>30.5</ele>
        <time>2013-09-15T09:07:53Z</time>
      </trkpt>
      <trkpt lat="49.88651" lon="2.43567">
        <ele>30.9</ele>
        <time>2013-09-15T09:08:05Z</time>
      </trkpt>
      <trkpt lat="49.88648" lon="2.43544">
        <ele>31.2</ele>
        <time>2013-09-15T09:08:17Z</time>
      </trkpt>
      <trkpt lat="49.88648" lon="2.43522">
        <ele>31.3</ele>
        <time>2013-09-15T09:08:24Z</time>
      </trkpt>
      <trkpt lat="49.88644" lon="2.43501">
        <ele>31.7</ele>
        <time>2013-09-15T09:08:38Z</time>
      </trkpt>
      <trkpt lat="49.88647" lon="2.4348">
        <ele>32</ele>
        <time>2013-09-15T09:08:48Z</time>
      </trkpt>
      <trkpt lat="49.88645" lon="2.43458">
        <ele>32.2</ele>
        <time>2013-09-15T09:08:57Z</time>
      </trkpt>
      <trkpt lat="49.88644" lon="2.43437">
        <ele>32.6</ele>
        <time>2013-09-15T09:09:12Z</time>
      </trkpt>
      <trkpt lat="49.88639" lon="2.43416">
        <ele>32.9</ele>
        <time>2013-09-15T09:09:24Z</time>
      </trkpt>
      <trkpt lat="49.88636" lon="2.43395">
        <ele>28.8</ele>
        <time>2013-09-15T09:09:37Z</time>
      </trkpt>
      <trkpt lat="49.88636" lon="2.43373">
        <ele>28</ele>
        <time>2013-09-15T09:09:49Z</time>
      </trkpt>
      <trkpt lat="49.88635" lon="2.43351">
        <ele>27.3</ele>
        <time>2013-09-15T09:09:59Z</time>
      </trkpt>
      <trkpt lat="49.88633" lon="2.43328">
        <ele>26.4</ele>
        <time>2013-09-15T09:10:13Z</time>
      </trkpt>
      <trkpt lat="49.88632" lon="2.43307">
        <ele>25.6</ele>
        <time>2013-09-15T09:10:25Z</time>
      </trkpt>
      <trkpt lat="49.88629" lon="2.43286">
        <ele>25</ele>
        <time>2013-09-15T09:10:34Z</time>
      </trkpt>
      <trkpt lat="49.88631" lon="2.43264">
        <ele>26.6</ele>
        <time>2013-09-15T09:10:46Z</time>
      </trkpt>
      <trkpt lat="49.88625" lon="2.43244">
        <ele>28.4</ele>
        <time>2013-09-15T09:11:00Z</time>
      </trkpt>
      <trkpt lat="49.88619" lon="2.43225">
        <ele>29.6</ele>
        <time>2013-09-15T09:11:13Z</time>
      </trkpt>
      <trkpt lat="49.88613" lon="2.43203">
        <ele>30.4</ele>
        <time>2013-09-15T09:11:22Z</time>
      </trkpt>
      <trkpt lat="49.8861" lon="2.43182">
        <ele>31.2</ele>
        <time>2013-09-15T09:11:31Z</time>
      </trkpt>
      <trkpt lat="49.88612" lon="2.4316">
        <ele>31.7</ele>
        <time>2013-09-15T09:11:41Z</time>
      </trkpt>
      <trkpt lat="49.88602" lon="2.43142">
        <ele>30.6</ele>
        <time>2013-09-15T09:11:51Z</time>
      </trkpt>
      <trkpt lat="49.88602" lon="2.43119">
        <ele>31.8</ele>
        <time>2013-09-15T09:12:00Z</time>
      </trkpt>
      <trkpt lat="49.88599" lon="2.43098">
        <ele>32.5</ele>
        <time>2013-09-15T09:12:15Z</time>
      </trkpt>
      <trkpt lat="49.88596" lon="2.43077">
        <ele>31.4</ele>
        <time>2013-09-15T09:12:27Z</time>
      </trkpt>
      <trkpt lat="49.88597" lon="2.43056">
        <ele>30.5</ele>
        <time>2013-09-15T09:12:37Z</time>
      </trkpt>
      <trkpt lat="49.88595" lon="2.43035">
        <ele>28</ele>
        <time>2013-09-15T09:12:47Z</time>
      </trkpt>
      <trkpt lat="49.88596" lon="2.43013">
        <ele>27.6</ele>
        <time>2013-09-15T09:13:00Z</time>
      </trkpt>
      <trkpt lat="49.88597" lon="2.4299">
        <ele>28.1</ele>
        <time>2013-09-15T09:13:10Z</time>
      </trkpt>
      <trkpt lat="49.88598" lon="2.42968">
        <ele>28.5</ele>
        <time>2013-09-15T09:13:18Z</time>
      </trkpt>
      <trkpt lat="49.88597" lon="2.42947">
        <ele>29</ele>
        <time>2013-09-15T09:13:28Z</time>
      </trkpt>
      <trkpt lat="49.88598" lon="2.42923">
        <ele>29.4</ele>
        <time>2013-09-15T09:13:37Z</time>
      </trkpt>
      <trkpt lat="49.88599" lon="2.42902">
        <ele>29.9</ele>
        <time>2013-09-15T09:13:46Z</time>
      </trkpt>
      <trkpt lat="49.88595" lon="2.42882">
        <ele>30.7</ele>
        <time>2013-09-15T09:13:57Z</time>
      </trkpt>
      <trkpt lat="49.88591" lon="2.42862">
        <ele>31.4</ele>
        <time>2013-09-15T09:14:07Z</time>
      </trkpt>
      <trkpt lat="49.88589" lon="2.42839">
        <ele>32.3</ele>
        <time>2013-09-15T09:14:20Z</time>
      </trkpt>
      <trkpt lat="49.88589" lon="2.42815">
        <ele>32.9</ele>
        <time>2013-09-15T09:14:28Z</time>
      </trkpt>
      <trkpt lat="49.88581" lon="2.42814">
        <ele>28.4</ele>
        <time>2013-09-15T09:14:36Z</time>
      </trkpt>
      <trkpt lat="49.88583" lon="2.42792">
        <ele>29.8</ele>
        <time>2013-09-15T09:14:44Z</time>
      </trkpt>
      <trkpt lat="49.88588" lon="2.42771">
        <ele>31</ele>
        <time>2013-09-15T09:14:51Z</time>
      </trkpt>
      <trkpt lat="49.88589" lon="2.4275">
        <ele>29.6</ele>
        <time>2013-09-15T09:14:59Z</time>
      </trkpt>
      <trkpt lat="49.8859" lon="2.42727">
        <ele>28.1</ele>
        <time>2013-09-15T09:15:11Z</time>
      </trkpt>
      <trkpt lat="49.88593" lon="2.42705">
        <ele>28.6</ele>
        <time>2013-09-15T09:15:22Z</time>
      </trkpt>
      <trkpt lat="49.88593" lon="2.42684">
        <ele>29.1</ele>
        <time>2013-09-15T09:15:32Z</time>
      </trkpt>
      <trkpt lat="49.88593" lon="2.42663">
        <ele>29.5</ele>
        <time>2013-09-15T09:15:42Z</time>
      </trkpt>
      <trkpt lat="49.88594" lon="2.42641">
        <ele>30</ele>
        <time>2013-09-15T09:15:54Z</time>
      </trkpt>
      <trkpt lat="49.88593" lon="2.42618">
        <ele>30.6</ele>
        <time>2013-09-15T09:16:06Z</time>
      </trkpt>
      <trkpt lat="49.88592" lon="2.42596">
        <ele>30.6</ele>
        <time>2013-09-15T09:16:17Z</time>
      </trkpt>
      <trkpt lat="49.88591" lon="2.42574">
        <ele>27.1</ele>
        <time>2013-09-15T09:16:28Z</time>
      </trkpt>
      <trkpt lat="49.88588" lon="2.42552">
        <ele>28.5</ele>
        <time>2013-09-15T09:16:38Z</time>
      </trkpt>
      <trkpt lat="49.88592" lon="2.4253">
        <ele>30</ele>
        <time>2013-09-15T09:16:49Z</time>
      </trkpt>
      <trkpt lat="49.88599" lon="2.42508">
        <ele>33.7</ele>
        <time>2013-09-15T09:16:58Z</time>
      </trkpt>
      <trkpt lat="49.88602" lon="2.42486">
        <ele>32.5</ele>
        <time>2013-09-15T09:17:12Z</time>
      </trkpt>
      <trkpt lat="49.88604" lon="2.42464">
        <ele>31.5</ele>
        <time>2013-09-15T09:17:23Z</time>
      </trkpt>
      <trkpt lat="49.88602" lon="2.42441">
        <ele>30.4</ele>
        <time>2013-09-15T09:17:35Z</time>
      </trkpt>
      <trkpt lat="49.88604" lon="2.42419">
        <ele>29.4</ele>
        <time>2013-09-15T09:17:45Z</time>
      </trkpt>
      <trkpt lat="49.88613" lon="2.42403">
        <ele>28.4</ele>
        <time>2013-09-15T09:17:54Z</time>
      </trkpt>
      <trkpt lat="49.88619" lon="2.42394">
        <ele>27.1</ele>
        <time>2013-09-15T09:18:06Z</time>
      </trkpt>
      <trkpt lat="49.88605" lon="2.42355">
        <ele>24.6</ele>
        <time>2013-09-15T09:18:33Z</time>
      </trkpt>
      <trkpt lat="49.88605" lon="2.42355">
        <ele>24.6</ele>
        <time>2013-09-15T09:22:38Z</time>
      </trkpt>
      <trkpt lat="49.88598" lon="2.42335">
        <ele>24.8</ele>
        <time>2013-09-15T09:22:38Z</time>
      </trkpt>
      <trkpt lat="49.88593" lon="2.42313">
        <ele>26</ele>
        <time>2013-09-15T09:22:48Z</time>
      </trkpt>
      <trkpt lat="49.88593" lon="2.4229">
        <ele>25.2</ele>
        <time>2013-09-15T09:22:57Z</time>
      </trkpt>
      <trkpt lat="49.88585" lon="2.42273">
        <ele>27.6</ele>
        <time>2013-09-15T09:23:07Z</time>
      </trkpt>
      <trkpt lat="49.88582" lon="2.42251">
        <ele>27.1</ele>
        <time>2013-09-15T09:23:17Z</time>
      </trkpt>
      <trkpt lat="49.88582" lon="2.42229">
        <ele>26.1</ele>
        <time>2013-09-15T09:23:27Z</time>
      </trkpt>
      <trkpt lat="49.88584" lon="2.42208">
        <ele>24.5</ele>
        <time>2013-09-15T09:23:41Z</time>
      </trkpt>
      <trkpt lat="49.88584" lon="2.42185">
        <ele>23.1</ele>
        <time>2013-09-15T09:23:51Z</time>
      </trkpt>
      <trkpt lat="49.88575" lon="2.42168">
        <ele>22</ele>
        <time>2013-09-15T09:23:59Z</time>
      </trkpt>
      <trkpt lat="49.88566" lon="2.4215">
        <ele>20.5</ele>
        <time>2013-09-15T09:24:10Z</time>
      </trkpt>
      <trkpt lat="49.88565" lon="2.42128">
        <ele>21.7</ele>
        <time>2013-09-15T09:24:19Z</time>
      </trkpt>
      <trkpt lat="49.88565" lon="2.42105">
        <ele>26.5</ele>
        <time>2013-09-15T09:24:32Z</time>
      </trkpt>
      <trkpt lat="49.88566" lon="2.42084">
        <ele>28</ele>
        <time>2013-09-15T09:24:45Z</time>
      </trkpt>
      <trkpt lat="49.88568" lon="2.42063">
        <ele>28</ele>
        <time>2013-09-15T09:24:56Z</time>
      </trkpt>
      <trkpt lat="49.88565" lon="2.42043">
        <ele>28</ele>
        <time>2013-09-15T09:25:07Z</time>
      </trkpt>
      <trkpt lat="49.88562" lon="2.42021">
        <ele>28.6</ele>
        <time>2013-09-15T09:25:21Z</time>
      </trkpt>
      <trkpt lat="49.88562" lon="2.42">
        <ele>30</ele>
        <time>2013-09-15T09:25:34Z</time>
      </trkpt>
      <trkpt lat="49.88555" lon="2.41981">
        <ele>29.4</ele>
        <time>2013-09-15T09:25:47Z</time>
      </trkpt>
      <trkpt lat="49.88557" lon="2.41959">
        <ele>29</ele>
        <time>2013-09-15T09:25:57Z</time>
      </trkpt>
      <trkpt lat="49.8856" lon="2.41938">
        <ele>28.4</ele>
        <time>2013-09-15T09:26:09Z</time>
      </trkpt>
      <trkpt lat="49.88564" lon="2.41927">
        <ele>28.3</ele>
        <time>2013-09-15T09:26:13Z</time>
      </trkpt>
      <trkpt lat="49.88573" lon="2.4191">
        <ele>28</ele>
        <time>2013-09-15T09:26:19Z</time>
      </trkpt>
      <trkpt lat="49.88567" lon="2.41901">
        <ele>27.4</ele>
        <time>2013-09-15T09:26:32Z</time>
      </trkpt>
      <trkpt lat="49.8857" lon="2.41881">
        <ele>29.2</ele>
        <time>2013-09-15T09:26:43Z</time>
      </trkpt>
      <trkpt lat="49.88573" lon="2.4186">
        <ele>30.3</ele>
        <time>2013-09-15T09:26:57Z</time>
      </trkpt>
      <trkpt lat="49.88582" lon="2.41841">
        <ele>28.4</ele>
        <time>2013-09-15T09:27:07Z</time>
      </trkpt>
      <trkpt lat="49.88582" lon="2.41819">
        <ele>26.9</ele>
        <time>2013-09-15T09:27:16Z</time>
      </trkpt>
      <trkpt lat="49.88578" lon="2.41795">
        <ele>26.3</ele>
        <time>2013-09-15T09:27:27Z</time>
      </trkpt>
      <trkpt lat="49.88577" lon="2.41772">
        <ele>25.7</ele>
        <time>2013-09-15T09:27:38Z</time>
      </trkpt>
      <trkpt lat="49.88576" lon="2.4175">
        <ele>25.1</ele>
        <time>2013-09-15T09:27:50Z</time>
      </trkpt>
      <trkpt lat="49.88576" lon="2.41729">
        <ele>24.5</ele>
        <time>2013-09-15T09:28:00Z</time>
      </trkpt>
      <trkpt lat="49.88572" lon="2.41707">
        <ele>23.9</ele>
        <time>2013-09-15T09:28:12Z</time>
      </trkpt>
      <trkpt lat="49.88566" lon="2.41688">
        <ele>23</ele>
        <time>2013-09-15T09:28:26Z</time>
      </trkpt>
      <trkpt lat="49.88569" lon="2.41667">
        <ele>22.6</ele>
        <time>2013-09-15T09:28:34Z</time>
      </trkpt>
      <trkpt lat="49.88569" lon="2.41645">
        <ele>21.8</ele>
        <time>2013-09-15T09:28:46Z</time>
      </trkpt>
      <trkpt lat="49.88567" lon="2.41623">
        <ele>21</ele>
        <time>2013-09-15T09:29:00Z</time>
      </trkpt>
      <trkpt lat="49.88571" lon="2.416">
        <ele>21</ele>
        <time>2013-09-15T09:29:11Z</time>
      </trkpt>
      <trkpt lat="49.88572" lon="2.41579">
        <ele>23.1</ele>
        <time>2013-09-15T09:29:22Z</time>
      </trkpt>
      <trkpt lat="49.88573" lon="2.41557">
        <ele>24.8</ele>
        <time>2013-09-15T09:29:33Z</time>
      </trkpt>
      <trkpt lat="49.88579" lon="2.41537">
        <ele>26.2</ele>
        <time>2013-09-15T09:29:43Z</time>
      </trkpt>
      <trkpt lat="49.88581" lon="2.41515">
        <ele>24.4</ele>
        <time>2013-09-15T09:29:56Z</time>
      </trkpt>
      <trkpt lat="49.88586" lon="2.41495">
        <ele>22.3</ele>
        <time>2013-09-15T09:30:10Z</time>
      </trkpt>
      <trkpt lat="49.88592" lon="2.41476">
        <ele>21.7</ele>
        <time>2013-09-15T09:30:19Z</time>
      </trkpt>
      <trkpt lat="49.88594" lon="2.41454">
        <ele>21</ele>
        <time>2013-09-15T09:30:29Z</time>
      </trkpt>
      <trkpt lat="49.88599" lon="2.41433">
        <ele>20.3</ele>
        <time>2013-09-15T09:30:38Z</time>
      </trkpt>
      <trkpt lat="49.88599" lon="2.41411">
        <ele>20.7</ele>
        <time>2013-09-15T09:30:53Z</time>
      </trkpt>
      <trkpt lat="49.88597" lon="2.4139">
        <ele>21.6</ele>
        <time>2013-09-15T09:31:07Z</time>
      </trkpt>
      <trkpt lat="49.88596" lon="2.41376">
        <ele>22.2</ele>
        <time>2013-09-15T09:31:15Z</time>
      </trkpt>
      <trkpt lat="49.886" lon="2.41354">
        <ele>25.2</ele>
        <time>2013-09-15T09:31:33Z</time>
      </trkpt>
      <trkpt lat="49.88601" lon="2.41331">
        <ele>27.8</ele>
        <time>2013-09-15T09:31:49Z</time>
      </trkpt>
      <trkpt lat="49.88599" lon="2.4131">
        <ele>28.6</ele>
        <time>2013-09-15T09:31:59Z</time>
      </trkpt>
      <trkpt lat="49.886" lon="2.41287">
        <ele>29</ele>
        <time>2013-09-15T09:32:12Z</time>
      </trkpt>
      <trkpt lat="49.88596" lon="2.41266">
        <ele>29</ele>
        <time>2013-09-15T09:32:23Z</time>
      </trkpt>
      <trkpt lat="49.88595" lon="2.41245">
        <ele>31.2</ele>
        <time>2013-09-15T09:32:38Z</time>
      </trkpt>
      <trkpt lat="49.88597" lon="2.41222">
        <ele>32.7</ele>
        <time>2013-09-15T09:32:51Z</time>
      </trkpt>
      <trkpt lat="49.88598" lon="2.412">
        <ele>30.3</ele>
        <time>2013-09-15T09:33:00Z</time>
      </trkpt>
      <trkpt lat="49.88598" lon="2.41179">
        <ele>28.8</ele>
        <time>2013-09-15T09:33:16Z</time>
      </trkpt>
      <trkpt lat="49.88594" lon="2.41157">
        <ele>27.8</ele>
        <time>2013-09-15T09:33:29Z</time>
      </trkpt>
      <trkpt lat="49.88593" lon="2.41136">
        <ele>27.1</ele>
        <time>2013-09-15T09:33:39Z</time>
      </trkpt>
      <trkpt lat="49.88591" lon="2.41128">
        <ele>25</ele>
        <time>2013-09-15T09:33:44Z</time>
      </trkpt>
      <trkpt lat="49.88582" lon="2.41137">
        <ele>21.7</ele>
        <time>2013-09-15T09:34:07Z</time>
      </trkpt>
      <trkpt lat="49.88576" lon="2.41115">
        <ele>21.5</ele>
        <time>2013-09-15T09:34:17Z</time>
      </trkpt>
      <trkpt lat="49.88573" lon="2.41094">
        <ele>21.2</ele>
        <time>2013-09-15T09:34:31Z</time>
      </trkpt>
      <trkpt lat="49.88576" lon="2.41073">
        <ele>19.6</ele>
        <time>2013-09-15T09:34:43Z</time>
      </trkpt>
      <trkpt lat="49.88562" lon="2.41071">
        <ele>20.2</ele>
        <time>2013-09-15T09:34:57Z</time>
      </trkpt>
      <trkpt lat="49.88565" lon="2.4105">
        <ele>22.8</ele>
        <time>2013-09-15T09:35:12Z</time>
      </trkpt>
      <trkpt lat="49.88564" lon="2.41027">
        <ele>25</ele>
        <time>2013-09-15T09:35:28Z</time>
      </trkpt>
      <trkpt lat="49.88567" lon="2.41005">
        <ele>26.1</ele>
        <time>2013-09-15T09:35:38Z</time>
      </trkpt>
      <trkpt lat="49.88554" lon="2.40994">
        <ele>28.4</ele>
        <time>2013-09-15T09:35:54Z</time>
      </trkpt>
      <trkpt lat="49.88549" lon="2.40973">
        <ele>30.1</ele>
        <time>2013-09-15T09:36:03Z</time>
      </trkpt>
      <trkpt lat="49.88557" lon="2.40954">
        <ele>31</ele>
        <time>2013-09-15T09:36:10Z</time>
      </trkpt>
      <trkpt lat="49.88562" lon="2.4094">
        <ele>31</ele>
        <time>2013-09-15T09:36:19Z</time>
      </trkpt>
      <trkpt lat="49.88541" lon="2.40919">
        <ele>22</ele>
        <time>2013-09-15T09:36:33Z</time>
      </trkpt>
      <trkpt lat="49.88541" lon="2.40919">
        <ele>22</ele>
        <time>2013-09-15T09:37:16Z</time>
      </trkpt>
      <trkpt lat="49.88526" lon="2.40884">
        <ele>18.2</ele>
        <time>2013-09-15T09:37:24Z</time>
      </trkpt>
      <trkpt lat="49.88526" lon="2.40884">
        <ele>18.2</ele>
        <time>2013-09-15T09:38:08Z</time>
      </trkpt>
      <trkpt lat="49.88521" lon="2.40855">
        <ele>18.5</ele>
        <time>2013-09-15T09:38:14Z</time>
      </trkpt>
      <trkpt lat="49.88523" lon="2.40833">
        <ele>19.7</ele>
        <time>2013-09-15T09:38:25Z</time>
      </trkpt>
      <trkpt lat="49.88522" lon="2.40811">
        <ele>21.9</ele>
        <time>2013-09-15T09:38:42Z</time>
      </trkpt>
      <trkpt lat="49.88524" lon="2.40788">
        <ele>23.4</ele>
        <time>2013-09-15T09:38:52Z</time>
      </trkpt>
      <trkpt lat="49.88523" lon="2.40766">
        <ele>24.3</ele>
        <time>2013-09-15T09:39:02Z</time>
      </trkpt>
      <trkpt lat="49.88517" lon="2.40747">
        <ele>22.8</ele>
        <time>2013-09-15T09:39:12Z</time>
      </trkpt>
      <trkpt lat="49.88518" lon="2.40726">
        <ele>22.3</ele>
        <time>2013-09-15T09:39:23Z</time>
      </trkpt>
      <trkpt lat="49.88511" lon="2.40707">
        <ele>21.8</ele>
        <time>2013-09-15T09:39:35Z</time>
      </trkpt>
      <trkpt lat="49.88507" lon="2.40685">
        <ele>21.3</ele>
        <time>2013-09-15T09:39:47Z</time>
      </trkpt>
      <trkpt lat="49.88507" lon="2.40662">
        <ele>20.9</ele>
        <time>2013-09-15T09:39:56Z</time>
      </trkpt>
      <trkpt lat="49.88507" lon="2.4064">
        <ele>20.6</ele>
        <time>2013-09-15T09:40:04Z</time>
      </trkpt>
      <trkpt lat="49.8851" lon="2.4062">
        <ele>20.2</ele>
        <time>2013-09-15T09:40:14Z</time>
      </trkpt>
      <trkpt lat="49.88505" lon="2.40597">
        <ele>19.6</ele>
        <time>2013-09-15T09:40:23Z</time>
      </trkpt>
      <trkpt lat="49.88498" lon="2.40579">
        <ele>18.6</ele>
        <time>2013-09-15T09:40:34Z</time>
      </trkpt>
      <trkpt lat="49.88499" lon="2.40556">
        <ele>17.4</ele>
        <time>2013-09-15T09:40:48Z</time>
      </trkpt>
      <trkpt lat="49.88497" lon="2.40535">
        <ele>16.2</ele>
        <time>2013-09-15T09:40:56Z</time>
      </trkpt>
      <trkpt lat="49.88491" lon="2.40518">
        <ele>15.5</ele>
        <time>2013-09-15T09:41:07Z</time>
      </trkpt>
      <trkpt lat="49.88497" lon="2.40493">
        <ele>15.1</ele>
        <time>2013-09-15T09:41:15Z</time>
      </trkpt>
      <trkpt lat="49.88493" lon="2.40472">
        <ele>16.4</ele>
        <time>2013-09-15T09:41:28Z</time>
      </trkpt>
      <trkpt lat="49.88488" lon="2.4045">
        <ele>17.4</ele>
        <time>2013-09-15T09:41:35Z</time>
      </trkpt>
      <trkpt lat="49.8849" lon="2.40428">
        <ele>18.9</ele>
        <time>2013-09-15T09:41:45Z</time>
      </trkpt>
      <trkpt lat="49.88492" lon="2.40406">
        <ele>18</ele>
        <time>2013-09-15T09:41:57Z</time>
      </trkpt>
      <trkpt lat="49.88488" lon="2.40385">
        <ele>15.1</ele>
        <time>2013-09-15T09:42:06Z</time>
      </trkpt>
      <trkpt lat="49.88487" lon="2.40363">
        <ele>15.5</ele>
        <time>2013-09-15T09:42:19Z</time>
      </trkpt>
      <trkpt lat="49.88486" lon="2.40341">
        <ele>17.1</ele>
        <time>2013-09-15T09:42:29Z</time>
      </trkpt>
      <trkpt lat="49.88484" lon="2.40318">
        <ele>18.1</ele>
        <time>2013-09-15T09:42:38Z</time>
      </trkpt>
      <trkpt lat="49.88481" lon="2.40298">
        <ele>19.3</ele>
        <time>2013-09-15T09:42:49Z</time>
      </trkpt>
      <trkpt lat="49.8848" lon="2.40274">
        <ele>19</ele>
        <time>2013-09-15T09:42:59Z</time>
      </trkpt>
      <trkpt lat="49.88478" lon="2.40252">
        <ele>17</ele>
        <time>2013-09-15T09:43:07Z</time>
      </trkpt>
      <trkpt lat="49.88473" lon="2.40233">
        <ele>17.7</ele>
        <time>2013-09-15T09:43:16Z</time>
      </trkpt>
      <trkpt lat="49.88473" lon="2.4021">
        <ele>18.5</ele>
        <time>2013-09-15T09:43:28Z</time>
      </trkpt>
      <trkpt lat="49.88473" lon="2.40188">
        <ele>19.3</ele>
        <time>2013-09-15T09:43:38Z</time>
      </trkpt>
      <trkpt lat="49.88472" lon="2.40167">
        <ele>20</ele>
        <time>2013-09-15T09:43:48Z</time>
      </trkpt>
      <trkpt lat="49.88469" lon="2.40146">
        <ele>19</ele>
        <time>2013-09-15T09:43:59Z</time>
      </trkpt>
      <trkpt lat="49.88463" lon="2.40125">
        <ele>18.1</ele>
        <time>2013-09-15T09:44:08Z</time>
      </trkpt>
      <trkpt lat="49.88462" lon="2.40104">
        <ele>17.2</ele>
        <time>2013-09-15T09:44:18Z</time>
      </trkpt>
      <trkpt lat="49.88462" lon="2.40081">
        <ele>20.3</ele>
        <time>2013-09-15T09:44:29Z</time>
      </trkpt>
      <trkpt lat="49.88463" lon="2.40059">
        <ele>20.2</ele>
        <time>2013-09-15T09:44:40Z</time>
      </trkpt>
      <trkpt lat="49.88462" lon="2.40036">
        <ele>19.3</ele>
        <time>2013-09-15T09:44:51Z</time>
      </trkpt>
      <trkpt lat="49.88459" lon="2.40015">
        <ele>18.3</ele>
        <time>2013-09-15T09:45:02Z</time>
      </trkpt>
      <trkpt lat="49.88458" lon="2.39995">
        <ele>18.9</ele>
        <time>2013-09-15T09:45:12Z</time>
      </trkpt>
      <trkpt lat="49.88454" lon="2.39974">
        <ele>20.3</ele>
        <time>2013-09-15T09:45:22Z</time>
      </trkpt>
      <trkpt lat="49.88455" lon="2.39953">
        <ele>20.3</ele>
        <time>2013-09-15T09:45:31Z</time>
      </trkpt>
      <trkpt lat="49.88451" lon="2.3993">
        <ele>18.2</ele>
        <time>2013-09-15T09:45:44Z</time>
      </trkpt>
      <trkpt lat="49.88448" lon="2.39908">
        <ele>20.3</ele>
        <time>2013-09-15T09:45:53Z</time>
      </trkpt>
      <trkpt lat="49.88446" lon="2.39886">
        <ele>22.8</ele>
        <time>2013-09-15T09:46:04Z</time>
      </trkpt>
      <trkpt lat="49.88443" lon="2.39864">
        <ele>22.5</ele>
        <time>2013-09-15T09:46:14Z</time>
      </trkpt>
      <trkpt lat="49.88443" lon="2.39843">
        <ele>22</ele>
        <time>2013-09-15T09:46:23Z</time>
      </trkpt>
      <trkpt lat="49.88442" lon="2.39821">
        <ele>21.2</ele>
        <time>2013-09-15T09:46:36Z</time>
      </trkpt>
      <trkpt lat="49.88442" lon="2.39799">
        <ele>20.6</ele>
        <time>2013-09-15T09:46:46Z</time>
      </trkpt>
      <trkpt lat="49.88438" lon="2.39778">
        <ele>20.1</ele>
        <time>2013-09-15T09:46:56Z</time>
      </trkpt>
      <trkpt lat="49.88436" lon="2.39757">
        <ele>18.3</ele>
        <time>2013-09-15T09:47:04Z</time>
      </trkpt>
      <trkpt lat="49.88433" lon="2.39735">
        <ele>15.7</ele>
        <time>2013-09-15T09:47:16Z</time>
      </trkpt>
      <trkpt lat="49.88421" lon="2.39746">
        <ele>14</ele>
        <time>2013-09-15T09:47:28Z</time>
      </trkpt>
      <trkpt lat="49.88411" lon="2.39744">
        <ele>12.7</ele>
        <time>2013-09-15T09:47:37Z</time>
      </trkpt>
      <trkpt lat="49.884" lon="2.39733">
        <ele>12.7</ele>
        <time>2013-09-15T09:47:46Z</time>
      </trkpt>
      <trkpt lat="49.88386" lon="2.39735">
        <ele>14.3</ele>
        <time>2013-09-15T09:47:56Z</time>
      </trkpt>
      <trkpt lat="49.88372" lon="2.39737">
        <ele>16.4</ele>
        <time>2013-09-15T09:48:05Z</time>
      </trkpt>
      <trkpt lat="49.88358" lon="2.39738">
        <ele>18.1</ele>
        <time>2013-09-15T09:48:15Z</time>
      </trkpt>
      <trkpt lat="49.88344" lon="2.39737">
        <ele>18.4</ele>
        <time>2013-09-15T09:48:24Z</time>
      </trkpt>
      <trkpt lat="49.8833" lon="2.39738">
        <ele>18.6</ele>
        <time>2013-09-15T09:48:32Z</time>
      </trkpt>
      <trkpt lat="49.88317" lon="2.3973">
        <ele>18.8</ele>
        <time>2013-09-15T09:48:45Z</time>
      </trkpt>
      <trkpt lat="49.88303" lon="2.39728">
        <ele>21</ele>
        <time>2013-09-15T09:48:55Z</time>
      </trkpt>
      <trkpt lat="49.88289" lon="2.39728">
        <ele>23.2</ele>
        <time>2013-09-15T09:49:02Z</time>
      </trkpt>
      <trkpt lat="49.88275" lon="2.39733">
        <ele>24.6</ele>
        <time>2013-09-15T09:49:10Z</time>
      </trkpt>
      <trkpt lat="49.8826" lon="2.39732">
        <ele>26</ele>
        <time>2013-09-15T09:49:23Z</time>
      </trkpt>
      <trkpt lat="49.88246" lon="2.39726">
        <ele>26</ele>
        <time>2013-09-15T09:49:34Z</time>
      </trkpt>
      <trkpt lat="49.88231" lon="2.39727">
        <ele>25.1</ele>
        <time>2013-09-15T09:49:45Z</time>
      </trkpt>
      <trkpt lat="49.88218" lon="2.39719">
        <ele>24</ele>
        <time>2013-09-15T09:49:57Z</time>
      </trkpt>
      <trkpt lat="49.88204" lon="2.39713">
        <ele>22.9</ele>
        <time>2013-09-15T09:50:08Z</time>
      </trkpt>
      <trkpt lat="49.8819" lon="2.39713">
        <ele>22</ele>
        <time>2013-09-15T09:50:19Z</time>
      </trkpt>
      <trkpt lat="49.88176" lon="2.39709">
        <ele>22.5</ele>
        <time>2013-09-15T09:50:29Z</time>
      </trkpt>
      <trkpt lat="49.88162" lon="2.39714">
        <ele>22.9</ele>
        <time>2013-09-15T09:50:38Z</time>
      </trkpt>
      <trkpt lat="49.88149" lon="2.39722">
        <ele>23.3</ele>
        <time>2013-09-15T09:50:46Z</time>
      </trkpt>
      <trkpt lat="49.88135" lon="2.39726">
        <ele>23.7</ele>
        <time>2013-09-15T09:50:55Z</time>
      </trkpt>
      <trkpt lat="49.88121" lon="2.39721">
        <ele>24.1</ele>
        <time>2013-09-15T09:51:06Z</time>
      </trkpt>
      <trkpt lat="49.88107" lon="2.39728">
        <ele>24.5</ele>
        <time>2013-09-15T09:51:14Z</time>
      </trkpt>
      <trkpt lat="49.88093" lon="2.39731">
        <ele>24.9</ele>
        <time>2013-09-15T09:51:22Z</time>
      </trkpt>
      <trkpt lat="49.88078" lon="2.39733">
        <ele>28.3</ele>
        <time>2013-09-15T09:51:34Z</time>
      </trkpt>
      <trkpt lat="49.88065" lon="2.39738">
        <ele>31</ele>
        <time>2013-09-15T09:51:47Z</time>
      </trkpt>
      <trkpt lat="49.8805" lon="2.39737">
        <ele>28.7</ele>
        <time>2013-09-15T09:52:00Z</time>
      </trkpt>
      <trkpt lat="49.88037" lon="2.3973">
        <ele>27.7</ele>
        <time>2013-09-15T09:52:14Z</time>
      </trkpt>
      <trkpt lat="49.88023" lon="2.39732">
        <ele>27.2</ele>
        <time>2013-09-15T09:52:23Z</time>
      </trkpt>
      <trkpt lat="49.88009" lon="2.3974">
        <ele>26.6</ele>
        <time>2013-09-15T09:52:33Z</time>
      </trkpt>
      <trkpt lat="49.87996" lon="2.39741">
        <ele>25.6</ele>
        <time>2013-09-15T09:52:50Z</time>
      </trkpt>
      <trkpt lat="49.87988" lon="2.39732">
        <ele>24.4</ele>
        <time>2013-09-15T09:53:01Z</time>
      </trkpt>
      <trkpt lat="49.8799" lon="2.39712">
        <ele>21</ele>
        <time>2013-09-15T09:53:11Z</time>
      </trkpt>
      <trkpt lat="49.87992" lon="2.39707">
        <ele>21</ele>
        <time>2013-09-15T09:53:16Z</time>
      </trkpt>
      <trkpt lat="49.87987" lon="2.39716">
        <ele>23</ele>
        <time>2013-09-15T09:53:24Z</time>
      </trkpt>
    </trkseg>
  </trk>
</gpx>